<?xml version="1.0" encoding="UTF-8" standalone="no" ?>
<gpx xmlns="http://www.topografix.com/GPX/1/1" xmlns:xsi="http://www.w3.org/2001/XMLSchema-instance" xsi:schemaLocation="http://www.topografix.com/GPX/1/1 http://www.topografix.com/GPX/1/1/gpx.xsd" version="1.1" creator="VisuGPX - https://www.visugpx.com">
  <metadata>
    <name>2020 Bretagne </name>
  </metadata>
  <trk>
    <name><![CDATA[20-08-09]]></name>
    <trkseg>
      <trkpt lat="47.67147" lon="-3.19891">
        <ele>39.07</ele>
        <time>2020-08-09T07:39:16Z</time>
      </trkpt>
      <trkpt lat="47.67159" lon="-3.19894">
        <ele>16.96</ele>
        <time>2020-08-09T07:39:30Z</time>
      </trkpt>
      <trkpt lat="47.67164" lon="-3.19893">
        <ele>16.96</ele>
        <time>2020-08-09T07:39:54Z</time>
      </trkpt>
      <trkpt lat="47.67165" lon="-3.19897">
        <ele>15.52</ele>
        <time>2020-08-09T07:40:04Z</time>
      </trkpt>
      <trkpt lat="47.67167" lon="-3.19899">
        <ele>14.08</ele>
        <time>2020-08-09T07:40:08Z</time>
      </trkpt>
      <trkpt lat="47.67171" lon="-3.19904">
        <ele>11.67</ele>
        <time>2020-08-09T07:40:14Z</time>
      </trkpt>
      <trkpt lat="47.67174" lon="-3.19907">
        <ele>10.71</ele>
        <time>2020-08-09T07:40:19Z</time>
      </trkpt>
      <trkpt lat="47.6718" lon="-3.19915">
        <ele>10.23</ele>
        <time>2020-08-09T07:40:25Z</time>
      </trkpt>
      <trkpt lat="47.67187" lon="-3.19927">
        <ele>10.23</ele>
        <time>2020-08-09T07:40:34Z</time>
      </trkpt>
      <trkpt lat="47.67198" lon="-3.19936">
        <ele>10.23</ele>
        <time>2020-08-09T07:40:46Z</time>
      </trkpt>
      <trkpt lat="47.67204" lon="-3.19941">
        <ele>9.75</ele>
        <time>2020-08-09T07:40:54Z</time>
      </trkpt>
      <trkpt lat="47.67212" lon="-3.19949">
        <ele>9.27</ele>
        <time>2020-08-09T07:41:09Z</time>
      </trkpt>
      <trkpt lat="47.67212" lon="-3.19951">
        <ele>9.27</ele>
        <time>2020-08-09T07:41:29Z</time>
      </trkpt>
      <trkpt lat="47.67214" lon="-3.19953">
        <ele>9.75</ele>
        <time>2020-08-09T07:42:02Z</time>
      </trkpt>
      <trkpt lat="47.67214" lon="-3.19954">
        <ele>9.27</ele>
        <time>2020-08-09T07:42:25Z</time>
      </trkpt>
      <trkpt lat="47.67214" lon="-3.19954">
        <ele>9.75</ele>
        <time>2020-08-09T07:42:29Z</time>
      </trkpt>
      <trkpt lat="47.67213" lon="-3.19953">
        <ele>9.75</ele>
        <time>2020-08-09T07:42:39Z</time>
      </trkpt>
      <trkpt lat="47.67214" lon="-3.19953">
        <ele>9.75</ele>
        <time>2020-08-09T07:42:54Z</time>
      </trkpt>
      <trkpt lat="47.67216" lon="-3.19952">
        <ele>9.75</ele>
        <time>2020-08-09T07:43:21Z</time>
      </trkpt>
      <trkpt lat="47.67217" lon="-3.19953">
        <ele>9.27</ele>
        <time>2020-08-09T07:43:44Z</time>
      </trkpt>
      <trkpt lat="47.67218" lon="-3.19952">
        <ele>9.75</ele>
        <time>2020-08-09T07:44:04Z</time>
      </trkpt>
      <trkpt lat="47.67218" lon="-3.19952">
        <ele>9.75</ele>
        <time>2020-08-09T07:44:21Z</time>
      </trkpt>
      <trkpt lat="47.67219" lon="-3.19952">
        <ele>9.27</ele>
        <time>2020-08-09T07:44:44Z</time>
      </trkpt>
      <trkpt lat="47.67219" lon="-3.19952">
        <ele>9.75</ele>
        <time>2020-08-09T07:45:04Z</time>
      </trkpt>
      <trkpt lat="47.67219" lon="-3.19952">
        <ele>10.23</ele>
        <time>2020-08-09T07:45:30Z</time>
      </trkpt>
      <trkpt lat="47.67219" lon="-3.19952">
        <ele>10.71</ele>
        <time>2020-08-09T07:45:50Z</time>
      </trkpt>
      <trkpt lat="47.67219" lon="-3.19952">
        <ele>9.75</ele>
        <time>2020-08-09T07:46:10Z</time>
      </trkpt>
      <trkpt lat="47.67219" lon="-3.19953">
        <ele>10.23</ele>
        <time>2020-08-09T07:46:35Z</time>
      </trkpt>
      <trkpt lat="47.67219" lon="-3.19952">
        <ele>10.23</ele>
        <time>2020-08-09T07:46:57Z</time>
      </trkpt>
      <trkpt lat="47.67219" lon="-3.19952">
        <ele>10.23</ele>
        <time>2020-08-09T07:47:22Z</time>
      </trkpt>
      <trkpt lat="47.67219" lon="-3.19952">
        <ele>10.23</ele>
        <time>2020-08-09T07:47:39Z</time>
      </trkpt>
      <trkpt lat="47.67218" lon="-3.19952">
        <ele>10.23</ele>
        <time>2020-08-09T07:48:00Z</time>
      </trkpt>
      <trkpt lat="47.67218" lon="-3.1995">
        <ele>10.23</ele>
        <time>2020-08-09T07:48:15Z</time>
      </trkpt>
      <trkpt lat="47.67217" lon="-3.1995">
        <ele>10.71</ele>
        <time>2020-08-09T07:48:35Z</time>
      </trkpt>
      <trkpt lat="47.67216" lon="-3.19951">
        <ele>10.23</ele>
        <time>2020-08-09T07:48:45Z</time>
      </trkpt>
      <trkpt lat="47.6721" lon="-3.19949">
        <ele>10.23</ele>
        <time>2020-08-09T07:48:52Z</time>
      </trkpt>
      <trkpt lat="47.67203" lon="-3.19941">
        <ele>11.67</ele>
        <time>2020-08-09T07:49:01Z</time>
      </trkpt>
      <trkpt lat="47.67198" lon="-3.19938">
        <ele>11.19</ele>
        <time>2020-08-09T07:49:06Z</time>
      </trkpt>
      <trkpt lat="47.67195" lon="-3.19935">
        <ele>11.19</ele>
        <time>2020-08-09T07:49:10Z</time>
      </trkpt>
      <trkpt lat="47.67194" lon="-3.19933">
        <ele>11.67</ele>
        <time>2020-08-09T07:49:12Z</time>
      </trkpt>
      <trkpt lat="47.67178" lon="-3.19919">
        <ele>12.15</ele>
        <time>2020-08-09T07:49:28Z</time>
      </trkpt>
      <trkpt lat="47.67171" lon="-3.19918">
        <ele>11.67</ele>
        <time>2020-08-09T07:49:37Z</time>
      </trkpt>
      <trkpt lat="47.67169" lon="-3.19918">
        <ele>11.67</ele>
        <time>2020-08-09T07:49:39Z</time>
      </trkpt>
      <trkpt lat="47.67162" lon="-3.19915">
        <ele>12.63</ele>
        <time>2020-08-09T07:49:47Z</time>
      </trkpt>
      <trkpt lat="47.67155" lon="-3.1991">
        <ele>12.15</ele>
        <time>2020-08-09T07:49:55Z</time>
      </trkpt>
      <trkpt lat="47.67153" lon="-3.19907">
        <ele>12.15</ele>
        <time>2020-08-09T07:49:58Z</time>
      </trkpt>
      <trkpt lat="47.67153" lon="-3.19899">
        <ele>12.63</ele>
        <time>2020-08-09T07:50:07Z</time>
      </trkpt>
      <trkpt lat="47.67149" lon="-3.1989">
        <ele>12.15</ele>
        <time>2020-08-09T07:50:22Z</time>
      </trkpt>
      <trkpt lat="47.67147" lon="-3.19895">
        <ele>10.71</ele>
        <time>2020-08-09T07:50:34Z</time>
      </trkpt>
      <trkpt lat="47.67141" lon="-3.19903">
        <ele>10.23</ele>
        <time>2020-08-09T07:50:44Z</time>
      </trkpt>
      <trkpt lat="47.67138" lon="-3.19907">
        <ele>9.75</ele>
        <time>2020-08-09T07:50:47Z</time>
      </trkpt>
      <trkpt lat="47.67131" lon="-3.19921">
        <ele>8.79</ele>
        <time>2020-08-09T07:51:02Z</time>
      </trkpt>
      <trkpt lat="47.67126" lon="-3.19928">
        <ele>7.35</ele>
        <time>2020-08-09T07:51:17Z</time>
      </trkpt>
      <trkpt lat="47.67119" lon="-3.19936">
        <ele>6.39</ele>
        <time>2020-08-09T07:51:28Z</time>
      </trkpt>
      <trkpt lat="47.67111" lon="-3.19943">
        <ele>7.83</ele>
        <time>2020-08-09T07:51:41Z</time>
      </trkpt>
      <trkpt lat="47.67088" lon="-3.19953">
        <ele>8.79</ele>
        <time>2020-08-09T07:51:53Z</time>
      </trkpt>
      <trkpt lat="47.67081" lon="-3.19961">
        <ele>9.27</ele>
        <time>2020-08-09T07:52:04Z</time>
      </trkpt>
      <trkpt lat="47.67076" lon="-3.19967">
        <ele>10.23</ele>
        <time>2020-08-09T07:52:15Z</time>
      </trkpt>
      <trkpt lat="47.67085" lon="-3.19981">
        <ele>11.19</ele>
        <time>2020-08-09T07:52:27Z</time>
      </trkpt>
      <trkpt lat="47.67086" lon="-3.19982">
        <ele>11.67</ele>
        <time>2020-08-09T07:52:28Z</time>
      </trkpt>
      <trkpt lat="47.67091" lon="-3.1999">
        <ele>11.19</ele>
        <time>2020-08-09T07:52:33Z</time>
      </trkpt>
      <trkpt lat="47.67103" lon="-3.20014">
        <ele>11.19</ele>
        <time>2020-08-09T07:52:45Z</time>
      </trkpt>
      <trkpt lat="47.67117" lon="-3.20035">
        <ele>10.71</ele>
        <time>2020-08-09T07:53:02Z</time>
      </trkpt>
      <trkpt lat="47.67124" lon="-3.20043">
        <ele>11.19</ele>
        <time>2020-08-09T07:53:10Z</time>
      </trkpt>
      <trkpt lat="47.6713" lon="-3.20054">
        <ele>12.15</ele>
        <time>2020-08-09T07:53:20Z</time>
      </trkpt>
      <trkpt lat="47.67146" lon="-3.20068">
        <ele>13.12</ele>
        <time>2020-08-09T07:53:35Z</time>
      </trkpt>
      <trkpt lat="47.67153" lon="-3.20076">
        <ele>12.63</ele>
        <time>2020-08-09T07:53:43Z</time>
      </trkpt>
      <trkpt lat="47.67157" lon="-3.2008">
        <ele>12.63</ele>
        <time>2020-08-09T07:53:47Z</time>
      </trkpt>
      <trkpt lat="47.67167" lon="-3.20092">
        <ele>11.67</ele>
        <time>2020-08-09T07:54:00Z</time>
      </trkpt>
      <trkpt lat="47.67168" lon="-3.20097">
        <ele>11.67</ele>
        <time>2020-08-09T07:54:03Z</time>
      </trkpt>
      <trkpt lat="47.6717" lon="-3.20108">
        <ele>11.67</ele>
        <time>2020-08-09T07:54:16Z</time>
      </trkpt>
      <trkpt lat="47.67171" lon="-3.2011">
        <ele>11.67</ele>
        <time>2020-08-09T07:54:23Z</time>
      </trkpt>
      <trkpt lat="47.6717" lon="-3.2012">
        <ele>12.15</ele>
        <time>2020-08-09T07:54:34Z</time>
      </trkpt>
      <trkpt lat="47.67173" lon="-3.20137">
        <ele>11.19</ele>
        <time>2020-08-09T07:54:46Z</time>
      </trkpt>
      <trkpt lat="47.67175" lon="-3.20152">
        <ele>10.71</ele>
        <time>2020-08-09T07:54:58Z</time>
      </trkpt>
      <trkpt lat="47.67177" lon="-3.20165">
        <ele>9.75</ele>
        <time>2020-08-09T07:55:10Z</time>
      </trkpt>
      <trkpt lat="47.67177" lon="-3.20176">
        <ele>9.27</ele>
        <time>2020-08-09T07:55:22Z</time>
      </trkpt>
      <trkpt lat="47.67178" lon="-3.20184">
        <ele>8.79</ele>
        <time>2020-08-09T07:55:43Z</time>
      </trkpt>
      <trkpt lat="47.67179" lon="-3.20185">
        <ele>8.79</ele>
        <time>2020-08-09T07:55:55Z</time>
      </trkpt>
      <trkpt lat="47.67175" lon="-3.20187">
        <ele>8.79</ele>
        <time>2020-08-09T07:56:01Z</time>
      </trkpt>
      <trkpt lat="47.67171" lon="-3.20186">
        <ele>9.27</ele>
        <time>2020-08-09T07:56:05Z</time>
      </trkpt>
      <trkpt lat="47.67159" lon="-3.20186">
        <ele>9.27</ele>
        <time>2020-08-09T07:56:21Z</time>
      </trkpt>
      <trkpt lat="47.67156" lon="-3.20187">
        <ele>8.79</ele>
        <time>2020-08-09T07:56:26Z</time>
      </trkpt>
      <trkpt lat="47.6714" lon="-3.20178">
        <ele>9.27</ele>
        <time>2020-08-09T07:56:41Z</time>
      </trkpt>
      <trkpt lat="47.67137" lon="-3.20178">
        <ele>8.79</ele>
        <time>2020-08-09T07:56:55Z</time>
      </trkpt>
      <trkpt lat="47.67133" lon="-3.20174">
        <ele>8.79</ele>
        <time>2020-08-09T07:57:09Z</time>
      </trkpt>
      <trkpt lat="47.67124" lon="-3.20173">
        <ele>9.27</ele>
        <time>2020-08-09T07:57:16Z</time>
      </trkpt>
      <trkpt lat="47.67116" lon="-3.20167">
        <ele>8.79</ele>
        <time>2020-08-09T07:57:25Z</time>
      </trkpt>
      <trkpt lat="47.67115" lon="-3.20164">
        <ele>8.31</ele>
        <time>2020-08-09T07:57:28Z</time>
      </trkpt>
      <trkpt lat="47.67104" lon="-3.20147">
        <ele>9.75</ele>
        <time>2020-08-09T07:57:43Z</time>
      </trkpt>
      <trkpt lat="47.67103" lon="-3.20145">
        <ele>9.75</ele>
        <time>2020-08-09T07:57:45Z</time>
      </trkpt>
      <trkpt lat="47.67092" lon="-3.20138">
        <ele>9.75</ele>
        <time>2020-08-09T07:57:57Z</time>
      </trkpt>
      <trkpt lat="47.6709" lon="-3.20137">
        <ele>8.79</ele>
        <time>2020-08-09T07:58:01Z</time>
      </trkpt>
      <trkpt lat="47.67084" lon="-3.20132">
        <ele>9.75</ele>
        <time>2020-08-09T07:58:09Z</time>
      </trkpt>
      <trkpt lat="47.6707" lon="-3.20132">
        <ele>8.79</ele>
        <time>2020-08-09T07:58:24Z</time>
      </trkpt>
      <trkpt lat="47.67065" lon="-3.20138">
        <ele>6.39</ele>
        <time>2020-08-09T07:58:38Z</time>
      </trkpt>
      <trkpt lat="47.67055" lon="-3.20144">
        <ele>5.91</ele>
        <time>2020-08-09T07:58:50Z</time>
      </trkpt>
      <trkpt lat="47.67049" lon="-3.20147">
        <ele>6.39</ele>
        <time>2020-08-09T07:58:56Z</time>
      </trkpt>
      <trkpt lat="47.67032" lon="-3.20145">
        <ele>5.91</ele>
        <time>2020-08-09T07:59:10Z</time>
      </trkpt>
      <trkpt lat="47.67029" lon="-3.20145">
        <ele>6.39</ele>
        <time>2020-08-09T07:59:13Z</time>
      </trkpt>
      <trkpt lat="47.67015" lon="-3.20148">
        <ele>6.39</ele>
        <time>2020-08-09T07:59:27Z</time>
      </trkpt>
      <trkpt lat="47.67013" lon="-3.20147">
        <ele>5.91</ele>
        <time>2020-08-09T07:59:44Z</time>
      </trkpt>
      <trkpt lat="47.67013" lon="-3.20148">
        <ele>5.91</ele>
        <time>2020-08-09T07:59:48Z</time>
      </trkpt>
      <trkpt lat="47.67007" lon="-3.20147">
        <ele>5.91</ele>
        <time>2020-08-09T07:59:52Z</time>
      </trkpt>
      <trkpt lat="47.67" lon="-3.20145">
        <ele>5.91</ele>
        <time>2020-08-09T07:59:59Z</time>
      </trkpt>
      <trkpt lat="47.66994" lon="-3.20157">
        <ele>6.39</ele>
        <time>2020-08-09T08:00:14Z</time>
      </trkpt>
      <trkpt lat="47.66994" lon="-3.20165">
        <ele>6.39</ele>
        <time>2020-08-09T08:00:21Z</time>
      </trkpt>
      <trkpt lat="47.66994" lon="-3.20173">
        <ele>6.39</ele>
        <time>2020-08-09T08:00:27Z</time>
      </trkpt>
      <trkpt lat="47.66993" lon="-3.20182">
        <ele>6.39</ele>
        <time>2020-08-09T08:00:35Z</time>
      </trkpt>
      <trkpt lat="47.66993" lon="-3.20185">
        <ele>6.39</ele>
        <time>2020-08-09T08:00:37Z</time>
      </trkpt>
      <trkpt lat="47.66992" lon="-3.20188">
        <ele>5.91</ele>
        <time>2020-08-09T08:00:41Z</time>
      </trkpt>
      <trkpt lat="47.66991" lon="-3.20194">
        <ele>6.39</ele>
        <time>2020-08-09T08:00:46Z</time>
      </trkpt>
      <trkpt lat="47.66995" lon="-3.20212">
        <ele>6.87</ele>
        <time>2020-08-09T08:00:59Z</time>
      </trkpt>
      <trkpt lat="47.66996" lon="-3.20214">
        <ele>6.39</ele>
        <time>2020-08-09T08:01:03Z</time>
      </trkpt>
      <trkpt lat="47.67003" lon="-3.20233">
        <ele>6.39</ele>
        <time>2020-08-09T08:01:18Z</time>
      </trkpt>
      <trkpt lat="47.67004" lon="-3.20235">
        <ele>7.35</ele>
        <time>2020-08-09T08:01:25Z</time>
      </trkpt>
      <trkpt lat="47.67005" lon="-3.20238">
        <ele>6.87</ele>
        <time>2020-08-09T08:01:27Z</time>
      </trkpt>
      <trkpt lat="47.67005" lon="-3.20245">
        <ele>6.87</ele>
        <time>2020-08-09T08:01:31Z</time>
      </trkpt>
      <trkpt lat="47.67004" lon="-3.20252">
        <ele>6.87</ele>
        <time>2020-08-09T08:01:37Z</time>
      </trkpt>
      <trkpt lat="47.67009" lon="-3.20272">
        <ele>7.35</ele>
        <time>2020-08-09T08:01:50Z</time>
      </trkpt>
      <trkpt lat="47.6701" lon="-3.20281">
        <ele>7.35</ele>
        <time>2020-08-09T08:01:57Z</time>
      </trkpt>
      <trkpt lat="47.67013" lon="-3.2029">
        <ele>6.39</ele>
        <time>2020-08-09T08:02:03Z</time>
      </trkpt>
      <trkpt lat="47.67018" lon="-3.20312">
        <ele>6.39</ele>
        <time>2020-08-09T08:02:16Z</time>
      </trkpt>
      <trkpt lat="47.67019" lon="-3.20315">
        <ele>5.91</ele>
        <time>2020-08-09T08:02:18Z</time>
      </trkpt>
      <trkpt lat="47.67021" lon="-3.20326">
        <ele>5.91</ele>
        <time>2020-08-09T08:02:26Z</time>
      </trkpt>
      <trkpt lat="47.6702" lon="-3.2033">
        <ele>6.39</ele>
        <time>2020-08-09T08:02:29Z</time>
      </trkpt>
      <trkpt lat="47.67022" lon="-3.20335">
        <ele>5.91</ele>
        <time>2020-08-09T08:02:33Z</time>
      </trkpt>
      <trkpt lat="47.67019" lon="-3.2034">
        <ele>5.91</ele>
        <time>2020-08-09T08:02:39Z</time>
      </trkpt>
      <trkpt lat="47.67018" lon="-3.20342">
        <ele>6.39</ele>
        <time>2020-08-09T08:02:46Z</time>
      </trkpt>
      <trkpt lat="47.67" lon="-3.20341">
        <ele>6.39</ele>
        <time>2020-08-09T08:03:02Z</time>
      </trkpt>
      <trkpt lat="47.66984" lon="-3.20339">
        <ele>7.35</ele>
        <time>2020-08-09T08:03:17Z</time>
      </trkpt>
      <trkpt lat="47.66969" lon="-3.20345">
        <ele>6.87</ele>
        <time>2020-08-09T08:03:33Z</time>
      </trkpt>
      <trkpt lat="47.66965" lon="-3.20344">
        <ele>7.35</ele>
        <time>2020-08-09T08:03:38Z</time>
      </trkpt>
      <trkpt lat="47.66956" lon="-3.20353">
        <ele>7.35</ele>
        <time>2020-08-09T08:03:53Z</time>
      </trkpt>
      <trkpt lat="47.66954" lon="-3.20357">
        <ele>7.35</ele>
        <time>2020-08-09T08:03:57Z</time>
      </trkpt>
      <trkpt lat="47.66952" lon="-3.20364">
        <ele>7.35</ele>
        <time>2020-08-09T08:04:08Z</time>
      </trkpt>
      <trkpt lat="47.66949" lon="-3.20373">
        <ele>7.35</ele>
        <time>2020-08-09T08:04:27Z</time>
      </trkpt>
      <trkpt lat="47.66943" lon="-3.20378">
        <ele>7.83</ele>
        <time>2020-08-09T08:04:36Z</time>
      </trkpt>
      <trkpt lat="47.66939" lon="-3.20386">
        <ele>7.83</ele>
        <time>2020-08-09T08:04:46Z</time>
      </trkpt>
      <trkpt lat="47.66937" lon="-3.20391">
        <ele>8.31</ele>
        <time>2020-08-09T08:05:01Z</time>
      </trkpt>
      <trkpt lat="47.66934" lon="-3.204">
        <ele>7.35</ele>
        <time>2020-08-09T08:05:13Z</time>
      </trkpt>
      <trkpt lat="47.66926" lon="-3.20416">
        <ele>7.83</ele>
        <time>2020-08-09T08:05:26Z</time>
      </trkpt>
      <trkpt lat="47.66915" lon="-3.20432">
        <ele>5.91</ele>
        <time>2020-08-09T08:05:42Z</time>
      </trkpt>
      <trkpt lat="47.66907" lon="-3.20443">
        <ele>5.91</ele>
        <time>2020-08-09T08:05:51Z</time>
      </trkpt>
      <trkpt lat="47.66908" lon="-3.20454">
        <ele>5.42</ele>
        <time>2020-08-09T08:05:58Z</time>
      </trkpt>
      <trkpt lat="47.66912" lon="-3.20462">
        <ele>5.91</ele>
        <time>2020-08-09T08:06:09Z</time>
      </trkpt>
      <trkpt lat="47.66917" lon="-3.20471">
        <ele>5.91</ele>
        <time>2020-08-09T08:06:23Z</time>
      </trkpt>
      <trkpt lat="47.66922" lon="-3.20481">
        <ele>6.39</ele>
        <time>2020-08-09T08:06:36Z</time>
      </trkpt>
      <trkpt lat="47.66927" lon="-3.20485">
        <ele>5.91</ele>
        <time>2020-08-09T08:06:41Z</time>
      </trkpt>
      <trkpt lat="47.66938" lon="-3.20501">
        <ele>7.35</ele>
        <time>2020-08-09T08:06:56Z</time>
      </trkpt>
      <trkpt lat="47.66941" lon="-3.20504">
        <ele>7.35</ele>
        <time>2020-08-09T08:07:00Z</time>
      </trkpt>
      <trkpt lat="47.66946" lon="-3.20506">
        <ele>7.83</ele>
        <time>2020-08-09T08:07:04Z</time>
      </trkpt>
      <trkpt lat="47.66961" lon="-3.20506">
        <ele>7.83</ele>
        <time>2020-08-09T08:07:19Z</time>
      </trkpt>
      <trkpt lat="47.66972" lon="-3.20507">
        <ele>8.31</ele>
        <time>2020-08-09T08:07:31Z</time>
      </trkpt>
      <trkpt lat="47.6698" lon="-3.20503">
        <ele>7.83</ele>
        <time>2020-08-09T08:07:41Z</time>
      </trkpt>
      <trkpt lat="47.66983" lon="-3.20503">
        <ele>7.35</ele>
        <time>2020-08-09T08:07:44Z</time>
      </trkpt>
      <trkpt lat="47.66987" lon="-3.20504">
        <ele>7.35</ele>
        <time>2020-08-09T08:07:47Z</time>
      </trkpt>
      <trkpt lat="47.66994" lon="-3.20517">
        <ele>6.87</ele>
        <time>2020-08-09T08:08:03Z</time>
      </trkpt>
      <trkpt lat="47.6699" lon="-3.20524">
        <ele>8.31</ele>
        <time>2020-08-09T08:08:17Z</time>
      </trkpt>
      <trkpt lat="47.6699" lon="-3.20524">
        <ele>8.31</ele>
        <time>2020-08-09T08:08:36Z</time>
      </trkpt>
      <trkpt lat="47.66987" lon="-3.2053">
        <ele>8.31</ele>
        <time>2020-08-09T08:08:56Z</time>
      </trkpt>
      <trkpt lat="47.66985" lon="-3.20533">
        <ele>8.79</ele>
        <time>2020-08-09T08:09:00Z</time>
      </trkpt>
      <trkpt lat="47.66982" lon="-3.20545">
        <ele>9.27</ele>
        <time>2020-08-09T08:09:10Z</time>
      </trkpt>
      <trkpt lat="47.66977" lon="-3.20555">
        <ele>10.23</ele>
        <time>2020-08-09T08:09:19Z</time>
      </trkpt>
      <trkpt lat="47.66975" lon="-3.20568">
        <ele>10.23</ele>
        <time>2020-08-09T08:09:27Z</time>
      </trkpt>
      <trkpt lat="47.66975" lon="-3.20575">
        <ele>10.71</ele>
        <time>2020-08-09T08:09:31Z</time>
      </trkpt>
      <trkpt lat="47.66973" lon="-3.20589">
        <ele>11.19</ele>
        <time>2020-08-09T08:09:40Z</time>
      </trkpt>
      <trkpt lat="47.66975" lon="-3.20596">
        <ele>11.19</ele>
        <time>2020-08-09T08:09:45Z</time>
      </trkpt>
      <trkpt lat="47.66982" lon="-3.2061">
        <ele>11.19</ele>
        <time>2020-08-09T08:09:58Z</time>
      </trkpt>
      <trkpt lat="47.66983" lon="-3.20614">
        <ele>10.71</ele>
        <time>2020-08-09T08:10:20Z</time>
      </trkpt>
      <trkpt lat="47.66984" lon="-3.20615">
        <ele>10.71</ele>
        <time>2020-08-09T08:10:43Z</time>
      </trkpt>
      <trkpt lat="47.66986" lon="-3.20615">
        <ele>10.23</ele>
        <time>2020-08-09T08:10:46Z</time>
      </trkpt>
      <trkpt lat="47.66991" lon="-3.20614">
        <ele>9.75</ele>
        <time>2020-08-09T08:10:52Z</time>
      </trkpt>
      <trkpt lat="47.66993" lon="-3.20615">
        <ele>9.27</ele>
        <time>2020-08-09T08:10:54Z</time>
      </trkpt>
      <trkpt lat="47.67004" lon="-3.20628">
        <ele>8.79</ele>
        <time>2020-08-09T08:11:06Z</time>
      </trkpt>
      <trkpt lat="47.67006" lon="-3.20634">
        <ele>9.27</ele>
        <time>2020-08-09T08:11:10Z</time>
      </trkpt>
      <trkpt lat="47.67007" lon="-3.20637">
        <ele>8.79</ele>
        <time>2020-08-09T08:11:13Z</time>
      </trkpt>
      <trkpt lat="47.67012" lon="-3.2065">
        <ele>10.23</ele>
        <time>2020-08-09T08:11:23Z</time>
      </trkpt>
      <trkpt lat="47.67015" lon="-3.20654">
        <ele>10.71</ele>
        <time>2020-08-09T08:11:37Z</time>
      </trkpt>
      <trkpt lat="47.67015" lon="-3.20654">
        <ele>10.23</ele>
        <time>2020-08-09T08:12:02Z</time>
      </trkpt>
      <trkpt lat="47.67014" lon="-3.20655">
        <ele>9.75</ele>
        <time>2020-08-09T08:12:19Z</time>
      </trkpt>
      <trkpt lat="47.67011" lon="-3.2066">
        <ele>9.27</ele>
        <time>2020-08-09T08:12:27Z</time>
      </trkpt>
      <trkpt lat="47.67005" lon="-3.20667">
        <ele>9.75</ele>
        <time>2020-08-09T08:12:40Z</time>
      </trkpt>
      <trkpt lat="47.67003" lon="-3.20671">
        <ele>9.75</ele>
        <time>2020-08-09T08:12:43Z</time>
      </trkpt>
      <trkpt lat="47.66998" lon="-3.20673">
        <ele>10.71</ele>
        <time>2020-08-09T08:12:51Z</time>
      </trkpt>
      <trkpt lat="47.66989" lon="-3.20673">
        <ele>11.67</ele>
        <time>2020-08-09T08:13:04Z</time>
      </trkpt>
      <trkpt lat="47.66987" lon="-3.20675">
        <ele>12.15</ele>
        <time>2020-08-09T08:13:07Z</time>
      </trkpt>
      <trkpt lat="47.66983" lon="-3.20678">
        <ele>11.67</ele>
        <time>2020-08-09T08:13:12Z</time>
      </trkpt>
      <trkpt lat="47.66973" lon="-3.20692">
        <ele>13.12</ele>
        <time>2020-08-09T08:13:26Z</time>
      </trkpt>
      <trkpt lat="47.66968" lon="-3.2069">
        <ele>14.56</ele>
        <time>2020-08-09T08:13:38Z</time>
      </trkpt>
      <trkpt lat="47.66962" lon="-3.20683">
        <ele>14.08</ele>
        <time>2020-08-09T08:13:50Z</time>
      </trkpt>
      <trkpt lat="47.66961" lon="-3.2068">
        <ele>15.04</ele>
        <time>2020-08-09T08:14:19Z</time>
      </trkpt>
      <trkpt lat="47.66962" lon="-3.20681">
        <ele>15.04</ele>
        <time>2020-08-09T08:14:33Z</time>
      </trkpt>
      <trkpt lat="47.66969" lon="-3.20695">
        <ele>13.12</ele>
        <time>2020-08-09T08:14:51Z</time>
      </trkpt>
      <trkpt lat="47.66969" lon="-3.20709">
        <ele>13.12</ele>
        <time>2020-08-09T08:14:59Z</time>
      </trkpt>
      <trkpt lat="47.66969" lon="-3.20713">
        <ele>13.12</ele>
        <time>2020-08-09T08:15:01Z</time>
      </trkpt>
      <trkpt lat="47.66968" lon="-3.20718">
        <ele>13.6</ele>
        <time>2020-08-09T08:15:04Z</time>
      </trkpt>
      <trkpt lat="47.66971" lon="-3.20733">
        <ele>13.12</ele>
        <time>2020-08-09T08:15:12Z</time>
      </trkpt>
      <trkpt lat="47.66978" lon="-3.20742">
        <ele>12.15</ele>
        <time>2020-08-09T08:15:19Z</time>
      </trkpt>
      <trkpt lat="47.66981" lon="-3.20747">
        <ele>12.15</ele>
        <time>2020-08-09T08:15:22Z</time>
      </trkpt>
      <trkpt lat="47.66984" lon="-3.2075">
        <ele>11.67</ele>
        <time>2020-08-09T08:15:25Z</time>
      </trkpt>
      <trkpt lat="47.66985" lon="-3.20757">
        <ele>11.67</ele>
        <time>2020-08-09T08:15:29Z</time>
      </trkpt>
      <trkpt lat="47.66984" lon="-3.20765">
        <ele>11.67</ele>
        <time>2020-08-09T08:15:34Z</time>
      </trkpt>
      <trkpt lat="47.66984" lon="-3.20777">
        <ele>11.67</ele>
        <time>2020-08-09T08:15:40Z</time>
      </trkpt>
      <trkpt lat="47.66984" lon="-3.20782">
        <ele>12.15</ele>
        <time>2020-08-09T08:15:42Z</time>
      </trkpt>
      <trkpt lat="47.66988" lon="-3.20797">
        <ele>11.67</ele>
        <time>2020-08-09T08:15:49Z</time>
      </trkpt>
      <trkpt lat="47.66992" lon="-3.20827">
        <ele>11.67</ele>
        <time>2020-08-09T08:16:04Z</time>
      </trkpt>
      <trkpt lat="47.66992" lon="-3.20831">
        <ele>11.67</ele>
        <time>2020-08-09T08:16:07Z</time>
      </trkpt>
      <trkpt lat="47.66994" lon="-3.20841">
        <ele>11.67</ele>
        <time>2020-08-09T08:16:20Z</time>
      </trkpt>
      <trkpt lat="47.66996" lon="-3.20845">
        <ele>11.67</ele>
        <time>2020-08-09T08:16:35Z</time>
      </trkpt>
      <trkpt lat="47.66996" lon="-3.20847">
        <ele>11.67</ele>
        <time>2020-08-09T08:16:59Z</time>
      </trkpt>
      <trkpt lat="47.66996" lon="-3.20848">
        <ele>11.67</ele>
        <time>2020-08-09T08:17:25Z</time>
      </trkpt>
      <trkpt lat="47.66996" lon="-3.2085">
        <ele>12.15</ele>
        <time>2020-08-09T08:17:50Z</time>
      </trkpt>
      <trkpt lat="47.66995" lon="-3.2085">
        <ele>11.67</ele>
        <time>2020-08-09T08:18:08Z</time>
      </trkpt>
      <trkpt lat="47.66995" lon="-3.2085">
        <ele>12.15</ele>
        <time>2020-08-09T08:18:10Z</time>
      </trkpt>
      <trkpt lat="47.66986" lon="-3.20846">
        <ele>12.63</ele>
        <time>2020-08-09T08:18:24Z</time>
      </trkpt>
      <trkpt lat="47.66981" lon="-3.20845">
        <ele>13.12</ele>
        <time>2020-08-09T08:18:32Z</time>
      </trkpt>
      <trkpt lat="47.66974" lon="-3.20848">
        <ele>13.12</ele>
        <time>2020-08-09T08:18:41Z</time>
      </trkpt>
      <trkpt lat="47.66963" lon="-3.2085">
        <ele>13.6</ele>
        <time>2020-08-09T08:18:54Z</time>
      </trkpt>
      <trkpt lat="47.66961" lon="-3.20858">
        <ele>13.12</ele>
        <time>2020-08-09T08:19:00Z</time>
      </trkpt>
      <trkpt lat="47.66951" lon="-3.20862">
        <ele>13.6</ele>
        <time>2020-08-09T08:19:13Z</time>
      </trkpt>
      <trkpt lat="47.66944" lon="-3.20866">
        <ele>12.63</ele>
        <time>2020-08-09T08:19:21Z</time>
      </trkpt>
      <trkpt lat="47.66939" lon="-3.20869">
        <ele>12.63</ele>
        <time>2020-08-09T08:19:26Z</time>
      </trkpt>
      <trkpt lat="47.66927" lon="-3.20872">
        <ele>13.12</ele>
        <time>2020-08-09T08:19:39Z</time>
      </trkpt>
      <trkpt lat="47.66923" lon="-3.20875">
        <ele>12.15</ele>
        <time>2020-08-09T08:19:44Z</time>
      </trkpt>
      <trkpt lat="47.66917" lon="-3.20883">
        <ele>11.19</ele>
        <time>2020-08-09T08:19:51Z</time>
      </trkpt>
      <trkpt lat="47.66904" lon="-3.20891">
        <ele>10.71</ele>
        <time>2020-08-09T08:20:05Z</time>
      </trkpt>
      <trkpt lat="47.66894" lon="-3.20892">
        <ele>10.71</ele>
        <time>2020-08-09T08:20:17Z</time>
      </trkpt>
      <trkpt lat="47.66888" lon="-3.20887">
        <ele>10.71</ele>
        <time>2020-08-09T08:20:24Z</time>
      </trkpt>
      <trkpt lat="47.66874" lon="-3.20883">
        <ele>11.19</ele>
        <time>2020-08-09T08:20:39Z</time>
      </trkpt>
      <trkpt lat="47.66865" lon="-3.20881">
        <ele>10.71</ele>
        <time>2020-08-09T08:20:51Z</time>
      </trkpt>
      <trkpt lat="47.66852" lon="-3.20884">
        <ele>10.23</ele>
        <time>2020-08-09T08:21:04Z</time>
      </trkpt>
      <trkpt lat="47.66841" lon="-3.20885">
        <ele>10.23</ele>
        <time>2020-08-09T08:21:15Z</time>
      </trkpt>
      <trkpt lat="47.66826" lon="-3.20883">
        <ele>10.71</ele>
        <time>2020-08-09T08:21:30Z</time>
      </trkpt>
      <trkpt lat="47.66814" lon="-3.20883">
        <ele>10.71</ele>
        <time>2020-08-09T08:21:43Z</time>
      </trkpt>
      <trkpt lat="47.66805" lon="-3.20884">
        <ele>10.71</ele>
        <time>2020-08-09T08:21:55Z</time>
      </trkpt>
      <trkpt lat="47.668" lon="-3.20885">
        <ele>10.71</ele>
        <time>2020-08-09T08:21:59Z</time>
      </trkpt>
      <trkpt lat="47.66785" lon="-3.20892">
        <ele>9.75</ele>
        <time>2020-08-09T08:22:13Z</time>
      </trkpt>
      <trkpt lat="47.66774" lon="-3.20888">
        <ele>10.23</ele>
        <time>2020-08-09T08:22:25Z</time>
      </trkpt>
      <trkpt lat="47.66771" lon="-3.20888">
        <ele>10.71</ele>
        <time>2020-08-09T08:22:28Z</time>
      </trkpt>
      <trkpt lat="47.66757" lon="-3.20883">
        <ele>11.19</ele>
        <time>2020-08-09T08:22:42Z</time>
      </trkpt>
      <trkpt lat="47.66746" lon="-3.20875">
        <ele>11.19</ele>
        <time>2020-08-09T08:22:54Z</time>
      </trkpt>
      <trkpt lat="47.66738" lon="-3.20872">
        <ele>11.67</ele>
        <time>2020-08-09T08:23:06Z</time>
      </trkpt>
      <trkpt lat="47.66727" lon="-3.20869">
        <ele>11.67</ele>
        <time>2020-08-09T08:23:20Z</time>
      </trkpt>
      <trkpt lat="47.66718" lon="-3.20874">
        <ele>11.67</ele>
        <time>2020-08-09T08:23:30Z</time>
      </trkpt>
      <trkpt lat="47.66705" lon="-3.20886">
        <ele>10.71</ele>
        <time>2020-08-09T08:23:44Z</time>
      </trkpt>
      <trkpt lat="47.66695" lon="-3.20895">
        <ele>10.71</ele>
        <time>2020-08-09T08:23:57Z</time>
      </trkpt>
      <trkpt lat="47.66694" lon="-3.20895">
        <ele>10.71</ele>
        <time>2020-08-09T08:24:22Z</time>
      </trkpt>
      <trkpt lat="47.66694" lon="-3.20894">
        <ele>10.71</ele>
        <time>2020-08-09T08:24:45Z</time>
      </trkpt>
      <trkpt lat="47.66693" lon="-3.20893">
        <ele>10.23</ele>
        <time>2020-08-09T08:25:11Z</time>
      </trkpt>
      <trkpt lat="47.66692" lon="-3.20893">
        <ele>10.71</ele>
        <time>2020-08-09T08:25:33Z</time>
      </trkpt>
      <trkpt lat="47.66682" lon="-3.20896">
        <ele>9.75</ele>
        <time>2020-08-09T08:25:48Z</time>
      </trkpt>
      <trkpt lat="47.66677" lon="-3.20901">
        <ele>7.83</ele>
        <time>2020-08-09T08:26:00Z</time>
      </trkpt>
      <trkpt lat="47.66673" lon="-3.20907">
        <ele>7.83</ele>
        <time>2020-08-09T08:26:13Z</time>
      </trkpt>
      <trkpt lat="47.66674" lon="-3.20907">
        <ele>7.83</ele>
        <time>2020-08-09T08:26:23Z</time>
      </trkpt>
      <trkpt lat="47.66676" lon="-3.20909">
        <ele>8.31</ele>
        <time>2020-08-09T08:26:42Z</time>
      </trkpt>
      <trkpt lat="47.66677" lon="-3.2091">
        <ele>7.83</ele>
        <time>2020-08-09T08:27:10Z</time>
      </trkpt>
      <trkpt lat="47.66677" lon="-3.20909">
        <ele>7.83</ele>
        <time>2020-08-09T08:27:32Z</time>
      </trkpt>
      <trkpt lat="47.66677" lon="-3.20909">
        <ele>7.83</ele>
        <time>2020-08-09T08:27:55Z</time>
      </trkpt>
      <trkpt lat="47.66677" lon="-3.20909">
        <ele>7.35</ele>
        <time>2020-08-09T08:28:19Z</time>
      </trkpt>
      <trkpt lat="47.66677" lon="-3.20909">
        <ele>8.31</ele>
        <time>2020-08-09T08:28:41Z</time>
      </trkpt>
      <trkpt lat="47.66677" lon="-3.20909">
        <ele>7.83</ele>
        <time>2020-08-09T08:29:01Z</time>
      </trkpt>
      <trkpt lat="47.66676" lon="-3.20906">
        <ele>7.83</ele>
        <time>2020-08-09T08:29:19Z</time>
      </trkpt>
      <trkpt lat="47.66679" lon="-3.20898">
        <ele>9.75</ele>
        <time>2020-08-09T08:29:31Z</time>
      </trkpt>
      <trkpt lat="47.66677" lon="-3.20895">
        <ele>9.75</ele>
        <time>2020-08-09T08:29:37Z</time>
      </trkpt>
      <trkpt lat="47.66666" lon="-3.20883">
        <ele>9.27</ele>
        <time>2020-08-09T08:29:52Z</time>
      </trkpt>
      <trkpt lat="47.66665" lon="-3.20881">
        <ele>9.75</ele>
        <time>2020-08-09T08:29:54Z</time>
      </trkpt>
      <trkpt lat="47.66658" lon="-3.20862">
        <ele>9.75</ele>
        <time>2020-08-09T08:30:10Z</time>
      </trkpt>
      <trkpt lat="47.66658" lon="-3.20861">
        <ele>9.75</ele>
        <time>2020-08-09T08:30:11Z</time>
      </trkpt>
      <trkpt lat="47.66657" lon="-3.20856">
        <ele>9.75</ele>
        <time>2020-08-09T08:30:15Z</time>
      </trkpt>
      <trkpt lat="47.66656" lon="-3.20837">
        <ele>11.19</ele>
        <time>2020-08-09T08:30:30Z</time>
      </trkpt>
      <trkpt lat="47.66653" lon="-3.20829">
        <ele>10.71</ele>
        <time>2020-08-09T08:30:40Z</time>
      </trkpt>
      <trkpt lat="47.66651" lon="-3.20825">
        <ele>10.23</ele>
        <time>2020-08-09T08:30:56Z</time>
      </trkpt>
      <trkpt lat="47.66651" lon="-3.20824">
        <ele>10.23</ele>
        <time>2020-08-09T08:31:21Z</time>
      </trkpt>
      <trkpt lat="47.66649" lon="-3.20821">
        <ele>10.23</ele>
        <time>2020-08-09T08:31:41Z</time>
      </trkpt>
      <trkpt lat="47.66647" lon="-3.20815">
        <ele>9.75</ele>
        <time>2020-08-09T08:31:54Z</time>
      </trkpt>
      <trkpt lat="47.66647" lon="-3.20815">
        <ele>10.23</ele>
        <time>2020-08-09T08:32:19Z</time>
      </trkpt>
      <trkpt lat="47.66647" lon="-3.20814">
        <ele>10.71</ele>
        <time>2020-08-09T08:32:44Z</time>
      </trkpt>
      <trkpt lat="47.66646" lon="-3.20814">
        <ele>9.75</ele>
        <time>2020-08-09T08:33:10Z</time>
      </trkpt>
      <trkpt lat="47.66646" lon="-3.20812">
        <ele>10.71</ele>
        <time>2020-08-09T08:33:20Z</time>
      </trkpt>
      <trkpt lat="47.66646" lon="-3.20806">
        <ele>9.75</ele>
        <time>2020-08-09T08:33:24Z</time>
      </trkpt>
      <trkpt lat="47.66644" lon="-3.208">
        <ele>9.75</ele>
        <time>2020-08-09T08:33:31Z</time>
      </trkpt>
      <trkpt lat="47.66644" lon="-3.20793">
        <ele>9.75</ele>
        <time>2020-08-09T08:33:48Z</time>
      </trkpt>
      <trkpt lat="47.66643" lon="-3.20789">
        <ele>10.23</ele>
        <time>2020-08-09T08:34:13Z</time>
      </trkpt>
      <trkpt lat="47.66643" lon="-3.20782">
        <ele>10.23</ele>
        <time>2020-08-09T08:34:20Z</time>
      </trkpt>
      <trkpt lat="47.66641" lon="-3.20769">
        <ele>10.23</ele>
        <time>2020-08-09T08:34:30Z</time>
      </trkpt>
      <trkpt lat="47.6664" lon="-3.20762">
        <ele>10.23</ele>
        <time>2020-08-09T08:34:35Z</time>
      </trkpt>
      <trkpt lat="47.66639" lon="-3.20757">
        <ele>9.27</ele>
        <time>2020-08-09T08:34:38Z</time>
      </trkpt>
      <trkpt lat="47.6664" lon="-3.20751">
        <ele>9.75</ele>
        <time>2020-08-09T08:34:42Z</time>
      </trkpt>
      <trkpt lat="47.66641" lon="-3.20746">
        <ele>9.75</ele>
        <time>2020-08-09T08:34:59Z</time>
      </trkpt>
      <trkpt lat="47.66641" lon="-3.20741">
        <ele>9.27</ele>
        <time>2020-08-09T08:35:09Z</time>
      </trkpt>
      <trkpt lat="47.6664" lon="-3.20729">
        <ele>9.27</ele>
        <time>2020-08-09T08:35:18Z</time>
      </trkpt>
      <trkpt lat="47.66641" lon="-3.20719">
        <ele>9.27</ele>
        <time>2020-08-09T08:35:25Z</time>
      </trkpt>
      <trkpt lat="47.66646" lon="-3.20707">
        <ele>9.27</ele>
        <time>2020-08-09T08:35:33Z</time>
      </trkpt>
      <trkpt lat="47.66654" lon="-3.20692">
        <ele>9.75</ele>
        <time>2020-08-09T08:35:46Z</time>
      </trkpt>
      <trkpt lat="47.66661" lon="-3.20688">
        <ele>9.75</ele>
        <time>2020-08-09T08:35:58Z</time>
      </trkpt>
      <trkpt lat="47.66662" lon="-3.20689">
        <ele>9.75</ele>
        <time>2020-08-09T08:36:05Z</time>
      </trkpt>
      <trkpt lat="47.66672" lon="-3.2069">
        <ele>10.71</ele>
        <time>2020-08-09T08:36:15Z</time>
      </trkpt>
      <trkpt lat="47.66684" lon="-3.207">
        <ele>12.63</ele>
        <time>2020-08-09T08:36:29Z</time>
      </trkpt>
      <trkpt lat="47.66684" lon="-3.207">
        <ele>12.15</ele>
        <time>2020-08-09T08:36:30Z</time>
      </trkpt>
      <trkpt lat="47.66687" lon="-3.20703">
        <ele>12.15</ele>
        <time>2020-08-09T08:36:33Z</time>
      </trkpt>
      <trkpt lat="47.66693" lon="-3.20714">
        <ele>12.63</ele>
        <time>2020-08-09T08:36:46Z</time>
      </trkpt>
      <trkpt lat="47.667" lon="-3.20721">
        <ele>12.63</ele>
        <time>2020-08-09T08:36:58Z</time>
      </trkpt>
      <trkpt lat="47.6671" lon="-3.20719">
        <ele>12.63</ele>
        <time>2020-08-09T08:37:13Z</time>
      </trkpt>
      <trkpt lat="47.66717" lon="-3.20716">
        <ele>11.67</ele>
        <time>2020-08-09T08:37:28Z</time>
      </trkpt>
      <trkpt lat="47.66722" lon="-3.20702">
        <ele>11.67</ele>
        <time>2020-08-09T08:37:39Z</time>
      </trkpt>
      <trkpt lat="47.66719" lon="-3.20688">
        <ele>11.19</ele>
        <time>2020-08-09T08:37:53Z</time>
      </trkpt>
      <trkpt lat="47.66711" lon="-3.20671">
        <ele>10.71</ele>
        <time>2020-08-09T08:38:07Z</time>
      </trkpt>
      <trkpt lat="47.66703" lon="-3.2066">
        <ele>10.23</ele>
        <time>2020-08-09T08:38:22Z</time>
      </trkpt>
      <trkpt lat="47.66702" lon="-3.20658">
        <ele>10.23</ele>
        <time>2020-08-09T08:38:24Z</time>
      </trkpt>
      <trkpt lat="47.667" lon="-3.2065">
        <ele>10.23</ele>
        <time>2020-08-09T08:38:35Z</time>
      </trkpt>
      <trkpt lat="47.66694" lon="-3.20641">
        <ele>10.23</ele>
        <time>2020-08-09T08:38:46Z</time>
      </trkpt>
      <trkpt lat="47.6669" lon="-3.20619">
        <ele>9.75</ele>
        <time>2020-08-09T08:39:00Z</time>
      </trkpt>
      <trkpt lat="47.66681" lon="-3.20599">
        <ele>9.75</ele>
        <time>2020-08-09T08:39:14Z</time>
      </trkpt>
      <trkpt lat="47.66674" lon="-3.20582">
        <ele>9.27</ele>
        <time>2020-08-09T08:39:28Z</time>
      </trkpt>
      <trkpt lat="47.66665" lon="-3.20578">
        <ele>8.31</ele>
        <time>2020-08-09T08:39:42Z</time>
      </trkpt>
      <trkpt lat="47.66664" lon="-3.20575">
        <ele>8.31</ele>
        <time>2020-08-09T08:39:58Z</time>
      </trkpt>
      <trkpt lat="47.66658" lon="-3.20563">
        <ele>8.31</ele>
        <time>2020-08-09T08:40:13Z</time>
      </trkpt>
      <trkpt lat="47.66658" lon="-3.2056">
        <ele>8.31</ele>
        <time>2020-08-09T08:40:15Z</time>
      </trkpt>
      <trkpt lat="47.66657" lon="-3.20554">
        <ele>8.79</ele>
        <time>2020-08-09T08:40:20Z</time>
      </trkpt>
      <trkpt lat="47.66662" lon="-3.20544">
        <ele>10.23</ele>
        <time>2020-08-09T08:40:32Z</time>
      </trkpt>
      <trkpt lat="47.66666" lon="-3.20531">
        <ele>9.75</ele>
        <time>2020-08-09T08:40:45Z</time>
      </trkpt>
      <trkpt lat="47.66672" lon="-3.20518">
        <ele>10.23</ele>
        <time>2020-08-09T08:40:57Z</time>
      </trkpt>
      <trkpt lat="47.66677" lon="-3.20502">
        <ele>10.71</ele>
        <time>2020-08-09T08:41:10Z</time>
      </trkpt>
      <trkpt lat="47.66675" lon="-3.20497">
        <ele>11.19</ele>
        <time>2020-08-09T08:41:21Z</time>
      </trkpt>
      <trkpt lat="47.66668" lon="-3.20493">
        <ele>10.71</ele>
        <time>2020-08-09T08:41:34Z</time>
      </trkpt>
      <trkpt lat="47.66664" lon="-3.20482">
        <ele>10.71</ele>
        <time>2020-08-09T08:41:46Z</time>
      </trkpt>
      <trkpt lat="47.6666" lon="-3.20475">
        <ele>10.71</ele>
        <time>2020-08-09T08:41:59Z</time>
      </trkpt>
      <trkpt lat="47.66661" lon="-3.20473">
        <ele>10.71</ele>
        <time>2020-08-09T08:42:24Z</time>
      </trkpt>
      <trkpt lat="47.66661" lon="-3.20472">
        <ele>10.71</ele>
        <time>2020-08-09T08:42:49Z</time>
      </trkpt>
      <trkpt lat="47.6666" lon="-3.20466">
        <ele>11.19</ele>
        <time>2020-08-09T08:43:07Z</time>
      </trkpt>
      <trkpt lat="47.6666" lon="-3.20464">
        <ele>10.71</ele>
        <time>2020-08-09T08:43:19Z</time>
      </trkpt>
      <trkpt lat="47.66659" lon="-3.20462">
        <ele>11.19</ele>
        <time>2020-08-09T08:43:21Z</time>
      </trkpt>
      <trkpt lat="47.66654" lon="-3.20443">
        <ele>11.19</ele>
        <time>2020-08-09T08:43:38Z</time>
      </trkpt>
      <trkpt lat="47.66649" lon="-3.20433">
        <ele>11.19</ele>
        <time>2020-08-09T08:43:58Z</time>
      </trkpt>
      <trkpt lat="47.66647" lon="-3.20431">
        <ele>11.19</ele>
        <time>2020-08-09T08:44:14Z</time>
      </trkpt>
      <trkpt lat="47.66642" lon="-3.20427">
        <ele>11.19</ele>
        <time>2020-08-09T08:44:26Z</time>
      </trkpt>
      <trkpt lat="47.66639" lon="-3.20426">
        <ele>11.19</ele>
        <time>2020-08-09T08:44:47Z</time>
      </trkpt>
      <trkpt lat="47.66638" lon="-3.20425">
        <ele>11.19</ele>
        <time>2020-08-09T08:45:15Z</time>
      </trkpt>
      <trkpt lat="47.66637" lon="-3.20426">
        <ele>11.67</ele>
        <time>2020-08-09T08:45:33Z</time>
      </trkpt>
      <trkpt lat="47.66636" lon="-3.20424">
        <ele>11.67</ele>
        <time>2020-08-09T08:45:57Z</time>
      </trkpt>
      <trkpt lat="47.66635" lon="-3.20419">
        <ele>12.15</ele>
        <time>2020-08-09T08:46:02Z</time>
      </trkpt>
      <trkpt lat="47.66634" lon="-3.20415">
        <ele>12.15</ele>
        <time>2020-08-09T08:46:06Z</time>
      </trkpt>
      <trkpt lat="47.66624" lon="-3.20403">
        <ele>11.67</ele>
        <time>2020-08-09T08:46:22Z</time>
      </trkpt>
      <trkpt lat="47.6662" lon="-3.20393">
        <ele>10.71</ele>
        <time>2020-08-09T08:46:37Z</time>
      </trkpt>
      <trkpt lat="47.66617" lon="-3.20389">
        <ele>10.71</ele>
        <time>2020-08-09T08:46:41Z</time>
      </trkpt>
      <trkpt lat="47.66612" lon="-3.20374">
        <ele>10.71</ele>
        <time>2020-08-09T08:46:55Z</time>
      </trkpt>
      <trkpt lat="47.66617" lon="-3.20366">
        <ele>11.19</ele>
        <time>2020-08-09T08:47:06Z</time>
      </trkpt>
      <trkpt lat="47.66621" lon="-3.20357">
        <ele>12.15</ele>
        <time>2020-08-09T08:47:19Z</time>
      </trkpt>
      <trkpt lat="47.66617" lon="-3.2035">
        <ele>11.67</ele>
        <time>2020-08-09T08:47:32Z</time>
      </trkpt>
      <trkpt lat="47.66611" lon="-3.20342">
        <ele>10.23</ele>
        <time>2020-08-09T08:47:45Z</time>
      </trkpt>
      <trkpt lat="47.66609" lon="-3.20341">
        <ele>10.71</ele>
        <time>2020-08-09T08:47:47Z</time>
      </trkpt>
      <trkpt lat="47.66606" lon="-3.20338">
        <ele>10.23</ele>
        <time>2020-08-09T08:47:50Z</time>
      </trkpt>
      <trkpt lat="47.66602" lon="-3.20333">
        <ele>10.23</ele>
        <time>2020-08-09T08:47:55Z</time>
      </trkpt>
      <trkpt lat="47.66599" lon="-3.20327">
        <ele>9.75</ele>
        <time>2020-08-09T08:48:01Z</time>
      </trkpt>
      <trkpt lat="47.66601" lon="-3.20318">
        <ele>9.75</ele>
        <time>2020-08-09T08:48:13Z</time>
      </trkpt>
      <trkpt lat="47.66602" lon="-3.20318">
        <ele>9.75</ele>
        <time>2020-08-09T08:48:29Z</time>
      </trkpt>
      <trkpt lat="47.66598" lon="-3.20321">
        <ele>9.27</ele>
        <time>2020-08-09T08:48:43Z</time>
      </trkpt>
      <trkpt lat="47.66598" lon="-3.20322">
        <ele>9.75</ele>
        <time>2020-08-09T08:48:58Z</time>
      </trkpt>
      <trkpt lat="47.66599" lon="-3.2032">
        <ele>9.75</ele>
        <time>2020-08-09T08:49:12Z</time>
      </trkpt>
      <trkpt lat="47.66607" lon="-3.20313">
        <ele>10.23</ele>
        <time>2020-08-09T08:49:25Z</time>
      </trkpt>
      <trkpt lat="47.66613" lon="-3.203">
        <ele>10.23</ele>
        <time>2020-08-09T08:49:40Z</time>
      </trkpt>
      <trkpt lat="47.66616" lon="-3.20283">
        <ele>10.23</ele>
        <time>2020-08-09T08:49:53Z</time>
      </trkpt>
      <trkpt lat="47.66618" lon="-3.2027">
        <ele>9.75</ele>
        <time>2020-08-09T08:50:05Z</time>
      </trkpt>
      <trkpt lat="47.66617" lon="-3.2026">
        <ele>9.75</ele>
        <time>2020-08-09T08:50:13Z</time>
      </trkpt>
      <trkpt lat="47.66617" lon="-3.20252">
        <ele>10.23</ele>
        <time>2020-08-09T08:50:18Z</time>
      </trkpt>
      <trkpt lat="47.66618" lon="-3.20248">
        <ele>9.75</ele>
        <time>2020-08-09T08:50:21Z</time>
      </trkpt>
      <trkpt lat="47.66616" lon="-3.20231">
        <ele>9.75</ele>
        <time>2020-08-09T08:50:34Z</time>
      </trkpt>
      <trkpt lat="47.6662" lon="-3.20224">
        <ele>10.23</ele>
        <time>2020-08-09T08:50:49Z</time>
      </trkpt>
      <trkpt lat="47.6662" lon="-3.20223">
        <ele>10.23</ele>
        <time>2020-08-09T08:50:51Z</time>
      </trkpt>
      <trkpt lat="47.66621" lon="-3.20209">
        <ele>9.27</ele>
        <time>2020-08-09T08:51:04Z</time>
      </trkpt>
      <trkpt lat="47.66627" lon="-3.20189">
        <ele>9.75</ele>
        <time>2020-08-09T08:51:16Z</time>
      </trkpt>
      <trkpt lat="47.66623" lon="-3.20166">
        <ele>8.79</ele>
        <time>2020-08-09T08:51:31Z</time>
      </trkpt>
      <trkpt lat="47.66616" lon="-3.20148">
        <ele>8.79</ele>
        <time>2020-08-09T08:51:46Z</time>
      </trkpt>
      <trkpt lat="47.66615" lon="-3.20147">
        <ele>8.31</ele>
        <time>2020-08-09T08:51:47Z</time>
      </trkpt>
      <trkpt lat="47.66608" lon="-3.20133">
        <ele>8.31</ele>
        <time>2020-08-09T08:52:01Z</time>
      </trkpt>
      <trkpt lat="47.66606" lon="-3.20131">
        <ele>8.31</ele>
        <time>2020-08-09T08:52:03Z</time>
      </trkpt>
      <trkpt lat="47.66599" lon="-3.20126">
        <ele>8.79</ele>
        <time>2020-08-09T08:52:10Z</time>
      </trkpt>
      <trkpt lat="47.66582" lon="-3.20126">
        <ele>9.75</ele>
        <time>2020-08-09T08:52:25Z</time>
      </trkpt>
      <trkpt lat="47.66575" lon="-3.20133">
        <ele>10.23</ele>
        <time>2020-08-09T08:52:33Z</time>
      </trkpt>
      <trkpt lat="47.66564" lon="-3.20152">
        <ele>10.23</ele>
        <time>2020-08-09T08:52:48Z</time>
      </trkpt>
      <trkpt lat="47.66558" lon="-3.20163">
        <ele>11.19</ele>
        <time>2020-08-09T08:53:01Z</time>
      </trkpt>
      <trkpt lat="47.66556" lon="-3.20179">
        <ele>11.19</ele>
        <time>2020-08-09T08:53:14Z</time>
      </trkpt>
      <trkpt lat="47.66554" lon="-3.20191">
        <ele>11.19</ele>
        <time>2020-08-09T08:53:26Z</time>
      </trkpt>
      <trkpt lat="47.66549" lon="-3.202">
        <ele>12.15</ele>
        <time>2020-08-09T08:53:40Z</time>
      </trkpt>
      <trkpt lat="47.66544" lon="-3.20211">
        <ele>11.67</ele>
        <time>2020-08-09T08:53:49Z</time>
      </trkpt>
      <trkpt lat="47.66541" lon="-3.20223">
        <ele>11.19</ele>
        <time>2020-08-09T08:53:57Z</time>
      </trkpt>
      <trkpt lat="47.66538" lon="-3.20237">
        <ele>12.15</ele>
        <time>2020-08-09T08:54:05Z</time>
      </trkpt>
      <trkpt lat="47.66536" lon="-3.20247">
        <ele>11.67</ele>
        <time>2020-08-09T08:54:11Z</time>
      </trkpt>
      <trkpt lat="47.66536" lon="-3.20252">
        <ele>12.15</ele>
        <time>2020-08-09T08:54:14Z</time>
      </trkpt>
      <trkpt lat="47.66535" lon="-3.20265">
        <ele>11.67</ele>
        <time>2020-08-09T08:54:21Z</time>
      </trkpt>
      <trkpt lat="47.66535" lon="-3.20271">
        <ele>12.15</ele>
        <time>2020-08-09T08:54:25Z</time>
      </trkpt>
      <trkpt lat="47.66535" lon="-3.20278">
        <ele>11.67</ele>
        <time>2020-08-09T08:54:29Z</time>
      </trkpt>
      <trkpt lat="47.66535" lon="-3.20283">
        <ele>11.67</ele>
        <time>2020-08-09T08:54:32Z</time>
      </trkpt>
      <trkpt lat="47.66531" lon="-3.20303">
        <ele>11.67</ele>
        <time>2020-08-09T08:54:46Z</time>
      </trkpt>
      <trkpt lat="47.66531" lon="-3.20305">
        <ele>11.19</ele>
        <time>2020-08-09T08:54:59Z</time>
      </trkpt>
      <trkpt lat="47.66531" lon="-3.20305">
        <ele>11.19</ele>
        <time>2020-08-09T08:55:35Z</time>
      </trkpt>
      <trkpt lat="47.6653" lon="-3.20306">
        <ele>10.71</ele>
        <time>2020-08-09T08:56:06Z</time>
      </trkpt>
      <trkpt lat="47.6653" lon="-3.20306">
        <ele>11.19</ele>
        <time>2020-08-09T08:56:34Z</time>
      </trkpt>
      <trkpt lat="47.6653" lon="-3.20308">
        <ele>12.15</ele>
        <time>2020-08-09T08:57:08Z</time>
      </trkpt>
      <trkpt lat="47.6653" lon="-3.20308">
        <ele>11.67</ele>
        <time>2020-08-09T08:57:12Z</time>
      </trkpt>
      <trkpt lat="47.6653" lon="-3.20308">
        <ele>11.19</ele>
        <time>2020-08-09T08:57:28Z</time>
      </trkpt>
      <trkpt lat="47.6653" lon="-3.20308">
        <ele>11.19</ele>
        <time>2020-08-09T08:58:03Z</time>
      </trkpt>
      <trkpt lat="47.66529" lon="-3.20307">
        <ele>10.71</ele>
        <time>2020-08-09T08:58:37Z</time>
      </trkpt>
      <trkpt lat="47.66529" lon="-3.20308">
        <ele>11.19</ele>
        <time>2020-08-09T08:59:10Z</time>
      </trkpt>
      <trkpt lat="47.66529" lon="-3.20309">
        <ele>11.19</ele>
        <time>2020-08-09T08:59:47Z</time>
      </trkpt>
      <trkpt lat="47.66529" lon="-3.20309">
        <ele>11.19</ele>
        <time>2020-08-09T09:00:19Z</time>
      </trkpt>
      <trkpt lat="47.66528" lon="-3.20308">
        <ele>11.19</ele>
        <time>2020-08-09T09:00:42Z</time>
      </trkpt>
      <trkpt lat="47.66528" lon="-3.20306">
        <ele>11.19</ele>
        <time>2020-08-09T09:01:19Z</time>
      </trkpt>
      <trkpt lat="47.66528" lon="-3.20306">
        <ele>9.75</ele>
        <time>2020-08-09T09:01:46Z</time>
      </trkpt>
      <trkpt lat="47.66528" lon="-3.20307">
        <ele>11.19</ele>
        <time>2020-08-09T09:02:08Z</time>
      </trkpt>
      <trkpt lat="47.66527" lon="-3.20307">
        <ele>11.67</ele>
        <time>2020-08-09T09:02:23Z</time>
      </trkpt>
      <trkpt lat="47.66527" lon="-3.20307">
        <ele>12.15</ele>
        <time>2020-08-09T09:02:46Z</time>
      </trkpt>
      <trkpt lat="47.66522" lon="-3.20307">
        <ele>13.12</ele>
        <time>2020-08-09T09:02:58Z</time>
      </trkpt>
      <trkpt lat="47.66519" lon="-3.20294">
        <ele>13.12</ele>
        <time>2020-08-09T09:03:12Z</time>
      </trkpt>
      <trkpt lat="47.66516" lon="-3.20282">
        <ele>13.12</ele>
        <time>2020-08-09T09:03:23Z</time>
      </trkpt>
      <trkpt lat="47.66513" lon="-3.20262">
        <ele>12.63</ele>
        <time>2020-08-09T09:03:37Z</time>
      </trkpt>
      <trkpt lat="47.66512" lon="-3.2026">
        <ele>12.63</ele>
        <time>2020-08-09T09:03:38Z</time>
      </trkpt>
      <trkpt lat="47.6651" lon="-3.20254">
        <ele>13.12</ele>
        <time>2020-08-09T09:03:43Z</time>
      </trkpt>
      <trkpt lat="47.66505" lon="-3.2024">
        <ele>12.63</ele>
        <time>2020-08-09T09:03:57Z</time>
      </trkpt>
      <trkpt lat="47.665" lon="-3.2023">
        <ele>13.12</ele>
        <time>2020-08-09T09:04:12Z</time>
      </trkpt>
      <trkpt lat="47.66487" lon="-3.20211">
        <ele>12.15</ele>
        <time>2020-08-09T09:04:28Z</time>
      </trkpt>
      <trkpt lat="47.66474" lon="-3.2021">
        <ele>12.15</ele>
        <time>2020-08-09T09:04:41Z</time>
      </trkpt>
      <trkpt lat="47.66468" lon="-3.20204">
        <ele>11.67</ele>
        <time>2020-08-09T09:04:55Z</time>
      </trkpt>
      <trkpt lat="47.66461" lon="-3.20195">
        <ele>11.67</ele>
        <time>2020-08-09T09:05:07Z</time>
      </trkpt>
      <trkpt lat="47.66458" lon="-3.20176">
        <ele>11.67</ele>
        <time>2020-08-09T09:05:19Z</time>
      </trkpt>
      <trkpt lat="47.66454" lon="-3.20158">
        <ele>11.67</ele>
        <time>2020-08-09T09:05:30Z</time>
      </trkpt>
      <trkpt lat="47.66444" lon="-3.20129">
        <ele>11.19</ele>
        <time>2020-08-09T09:05:49Z</time>
      </trkpt>
      <trkpt lat="47.66438" lon="-3.20129">
        <ele>11.19</ele>
        <time>2020-08-09T09:06:10Z</time>
      </trkpt>
      <trkpt lat="47.6643" lon="-3.20115">
        <ele>10.71</ele>
        <time>2020-08-09T09:06:22Z</time>
      </trkpt>
      <trkpt lat="47.66423" lon="-3.20106">
        <ele>10.23</ele>
        <time>2020-08-09T09:06:31Z</time>
      </trkpt>
      <trkpt lat="47.66423" lon="-3.20099">
        <ele>10.23</ele>
        <time>2020-08-09T09:06:34Z</time>
      </trkpt>
      <trkpt lat="47.66416" lon="-3.20085">
        <ele>9.75</ele>
        <time>2020-08-09T09:06:47Z</time>
      </trkpt>
      <trkpt lat="47.66416" lon="-3.20084">
        <ele>9.75</ele>
        <time>2020-08-09T09:06:48Z</time>
      </trkpt>
      <trkpt lat="47.66414" lon="-3.20067">
        <ele>10.23</ele>
        <time>2020-08-09T09:07:01Z</time>
      </trkpt>
      <trkpt lat="47.6641" lon="-3.20051">
        <ele>10.23</ele>
        <time>2020-08-09T09:07:14Z</time>
      </trkpt>
      <trkpt lat="47.66401" lon="-3.20046">
        <ele>10.23</ele>
        <time>2020-08-09T09:07:26Z</time>
      </trkpt>
      <trkpt lat="47.66404" lon="-3.20027">
        <ele>10.23</ele>
        <time>2020-08-09T09:07:43Z</time>
      </trkpt>
      <trkpt lat="47.66403" lon="-3.20026">
        <ele>9.75</ele>
        <time>2020-08-09T09:08:04Z</time>
      </trkpt>
      <trkpt lat="47.66403" lon="-3.20027">
        <ele>9.75</ele>
        <time>2020-08-09T09:08:27Z</time>
      </trkpt>
      <trkpt lat="47.66403" lon="-3.20028">
        <ele>10.23</ele>
        <time>2020-08-09T09:08:52Z</time>
      </trkpt>
      <trkpt lat="47.66406" lon="-3.20028">
        <ele>9.75</ele>
        <time>2020-08-09T09:09:05Z</time>
      </trkpt>
      <trkpt lat="47.66414" lon="-3.20025">
        <ele>9.75</ele>
        <time>2020-08-09T09:09:20Z</time>
      </trkpt>
      <trkpt lat="47.6642" lon="-3.20028">
        <ele>9.27</ele>
        <time>2020-08-09T09:09:34Z</time>
      </trkpt>
      <trkpt lat="47.66431" lon="-3.2003">
        <ele>9.27</ele>
        <time>2020-08-09T09:09:50Z</time>
      </trkpt>
      <trkpt lat="47.66447" lon="-3.20023">
        <ele>10.23</ele>
        <time>2020-08-09T09:10:04Z</time>
      </trkpt>
      <trkpt lat="47.66456" lon="-3.20012">
        <ele>9.75</ele>
        <time>2020-08-09T09:10:17Z</time>
      </trkpt>
      <trkpt lat="47.6646" lon="-3.20005">
        <ele>9.75</ele>
        <time>2020-08-09T09:10:31Z</time>
      </trkpt>
      <trkpt lat="47.66467" lon="-3.1999">
        <ele>9.75</ele>
        <time>2020-08-09T09:10:42Z</time>
      </trkpt>
      <trkpt lat="47.66485" lon="-3.19961">
        <ele>9.75</ele>
        <time>2020-08-09T09:10:56Z</time>
      </trkpt>
      <trkpt lat="47.66487" lon="-3.19951">
        <ele>9.27</ele>
        <time>2020-08-09T09:11:06Z</time>
      </trkpt>
      <trkpt lat="47.66488" lon="-3.19944">
        <ele>9.27</ele>
        <time>2020-08-09T09:11:09Z</time>
      </trkpt>
      <trkpt lat="47.66484" lon="-3.19933">
        <ele>9.27</ele>
        <time>2020-08-09T09:11:22Z</time>
      </trkpt>
      <trkpt lat="47.66475" lon="-3.19926">
        <ele>9.27</ele>
        <time>2020-08-09T09:11:35Z</time>
      </trkpt>
      <trkpt lat="47.66469" lon="-3.19921">
        <ele>9.75</ele>
        <time>2020-08-09T09:11:47Z</time>
      </trkpt>
      <trkpt lat="47.66453" lon="-3.19912">
        <ele>9.75</ele>
        <time>2020-08-09T09:11:58Z</time>
      </trkpt>
      <trkpt lat="47.66446" lon="-3.19903">
        <ele>9.75</ele>
        <time>2020-08-09T09:12:11Z</time>
      </trkpt>
      <trkpt lat="47.66445" lon="-3.19896">
        <ele>9.27</ele>
        <time>2020-08-09T09:12:30Z</time>
      </trkpt>
      <trkpt lat="47.66443" lon="-3.19897">
        <ele>9.27</ele>
        <time>2020-08-09T09:12:49Z</time>
      </trkpt>
      <trkpt lat="47.66438" lon="-3.19895">
        <ele>10.23</ele>
        <time>2020-08-09T09:13:05Z</time>
      </trkpt>
      <trkpt lat="47.66435" lon="-3.19882">
        <ele>10.23</ele>
        <time>2020-08-09T09:13:21Z</time>
      </trkpt>
      <trkpt lat="47.66424" lon="-3.19869">
        <ele>10.23</ele>
        <time>2020-08-09T09:13:34Z</time>
      </trkpt>
      <trkpt lat="47.66422" lon="-3.19862">
        <ele>10.23</ele>
        <time>2020-08-09T09:13:46Z</time>
      </trkpt>
      <trkpt lat="47.6642" lon="-3.19847">
        <ele>10.23</ele>
        <time>2020-08-09T09:13:56Z</time>
      </trkpt>
      <trkpt lat="47.66422" lon="-3.19828">
        <ele>10.71</ele>
        <time>2020-08-09T09:14:07Z</time>
      </trkpt>
      <trkpt lat="47.66427" lon="-3.19809">
        <ele>11.19</ele>
        <time>2020-08-09T09:14:20Z</time>
      </trkpt>
      <trkpt lat="47.66425" lon="-3.19797">
        <ele>11.19</ele>
        <time>2020-08-09T09:14:30Z</time>
      </trkpt>
      <trkpt lat="47.66422" lon="-3.1979">
        <ele>11.19</ele>
        <time>2020-08-09T09:14:41Z</time>
      </trkpt>
      <trkpt lat="47.6642" lon="-3.19789">
        <ele>10.71</ele>
        <time>2020-08-09T09:14:43Z</time>
      </trkpt>
      <trkpt lat="47.66413" lon="-3.19781">
        <ele>10.71</ele>
        <time>2020-08-09T09:14:51Z</time>
      </trkpt>
      <trkpt lat="47.66409" lon="-3.19765">
        <ele>11.19</ele>
        <time>2020-08-09T09:15:02Z</time>
      </trkpt>
      <trkpt lat="47.66411" lon="-3.19748">
        <ele>11.67</ele>
        <time>2020-08-09T09:15:12Z</time>
      </trkpt>
      <trkpt lat="47.66411" lon="-3.1974">
        <ele>11.67</ele>
        <time>2020-08-09T09:15:20Z</time>
      </trkpt>
      <trkpt lat="47.66411" lon="-3.19728">
        <ele>12.15</ele>
        <time>2020-08-09T09:15:30Z</time>
      </trkpt>
      <trkpt lat="47.66408" lon="-3.19711">
        <ele>12.15</ele>
        <time>2020-08-09T09:15:41Z</time>
      </trkpt>
      <trkpt lat="47.66405" lon="-3.197">
        <ele>12.63</ele>
        <time>2020-08-09T09:15:44Z</time>
      </trkpt>
      <trkpt lat="47.66411" lon="-3.19668">
        <ele>13.12</ele>
        <time>2020-08-09T09:15:58Z</time>
      </trkpt>
      <trkpt lat="47.66409" lon="-3.19659">
        <ele>13.6</ele>
        <time>2020-08-09T09:16:04Z</time>
      </trkpt>
      <trkpt lat="47.66406" lon="-3.19632">
        <ele>13.6</ele>
        <time>2020-08-09T09:16:23Z</time>
      </trkpt>
      <trkpt lat="47.66403" lon="-3.19629">
        <ele>13.6</ele>
        <time>2020-08-09T09:16:28Z</time>
      </trkpt>
      <trkpt lat="47.66391" lon="-3.19614">
        <ele>13.6</ele>
        <time>2020-08-09T09:16:42Z</time>
      </trkpt>
      <trkpt lat="47.66386" lon="-3.19607">
        <ele>13.6</ele>
        <time>2020-08-09T09:16:52Z</time>
      </trkpt>
      <trkpt lat="47.66376" lon="-3.19592">
        <ele>12.63</ele>
        <time>2020-08-09T09:17:06Z</time>
      </trkpt>
      <trkpt lat="47.66364" lon="-3.19577">
        <ele>12.63</ele>
        <time>2020-08-09T09:17:19Z</time>
      </trkpt>
      <trkpt lat="47.66363" lon="-3.19568">
        <ele>12.63</ele>
        <time>2020-08-09T09:17:27Z</time>
      </trkpt>
      <trkpt lat="47.66354" lon="-3.1956">
        <ele>12.63</ele>
        <time>2020-08-09T09:17:41Z</time>
      </trkpt>
      <trkpt lat="47.66341" lon="-3.19539">
        <ele>12.63</ele>
        <time>2020-08-09T09:17:56Z</time>
      </trkpt>
      <trkpt lat="47.66334" lon="-3.19526">
        <ele>12.63</ele>
        <time>2020-08-09T09:18:08Z</time>
      </trkpt>
      <trkpt lat="47.66333" lon="-3.19524">
        <ele>13.12</ele>
        <time>2020-08-09T09:18:10Z</time>
      </trkpt>
      <trkpt lat="47.66329" lon="-3.19521">
        <ele>12.63</ele>
        <time>2020-08-09T09:18:14Z</time>
      </trkpt>
      <trkpt lat="47.66323" lon="-3.19514">
        <ele>12.15</ele>
        <time>2020-08-09T09:18:21Z</time>
      </trkpt>
      <trkpt lat="47.66322" lon="-3.19509">
        <ele>12.15</ele>
        <time>2020-08-09T09:18:25Z</time>
      </trkpt>
      <trkpt lat="47.66322" lon="-3.19507">
        <ele>12.15</ele>
        <time>2020-08-09T09:18:27Z</time>
      </trkpt>
      <trkpt lat="47.66322" lon="-3.19496">
        <ele>13.12</ele>
        <time>2020-08-09T09:18:41Z</time>
      </trkpt>
      <trkpt lat="47.66322" lon="-3.19486">
        <ele>13.12</ele>
        <time>2020-08-09T09:18:48Z</time>
      </trkpt>
      <trkpt lat="47.66325" lon="-3.1947">
        <ele>13.6</ele>
        <time>2020-08-09T09:18:57Z</time>
      </trkpt>
      <trkpt lat="47.66324" lon="-3.19466">
        <ele>13.6</ele>
        <time>2020-08-09T09:19:00Z</time>
      </trkpt>
      <trkpt lat="47.66322" lon="-3.19463">
        <ele>13.12</ele>
        <time>2020-08-09T09:19:02Z</time>
      </trkpt>
      <trkpt lat="47.66321" lon="-3.1946">
        <ele>13.12</ele>
        <time>2020-08-09T09:19:04Z</time>
      </trkpt>
      <trkpt lat="47.66321" lon="-3.19454">
        <ele>13.12</ele>
        <time>2020-08-09T09:19:07Z</time>
      </trkpt>
      <trkpt lat="47.66316" lon="-3.19434">
        <ele>13.12</ele>
        <time>2020-08-09T09:19:20Z</time>
      </trkpt>
      <trkpt lat="47.66312" lon="-3.19416">
        <ele>13.12</ele>
        <time>2020-08-09T09:19:33Z</time>
      </trkpt>
      <trkpt lat="47.6631" lon="-3.19403">
        <ele>13.6</ele>
        <time>2020-08-09T09:19:44Z</time>
      </trkpt>
      <trkpt lat="47.66312" lon="-3.19385">
        <ele>13.6</ele>
        <time>2020-08-09T09:19:58Z</time>
      </trkpt>
      <trkpt lat="47.66315" lon="-3.19372">
        <ele>13.6</ele>
        <time>2020-08-09T09:20:08Z</time>
      </trkpt>
      <trkpt lat="47.66314" lon="-3.1936">
        <ele>14.08</ele>
        <time>2020-08-09T09:20:19Z</time>
      </trkpt>
      <trkpt lat="47.66316" lon="-3.19333">
        <ele>14.08</ele>
        <time>2020-08-09T09:20:36Z</time>
      </trkpt>
      <trkpt lat="47.66316" lon="-3.19319">
        <ele>14.56</ele>
        <time>2020-08-09T09:20:43Z</time>
      </trkpt>
      <trkpt lat="47.66317" lon="-3.19311">
        <ele>14.56</ele>
        <time>2020-08-09T09:20:48Z</time>
      </trkpt>
      <trkpt lat="47.66316" lon="-3.193">
        <ele>14.56</ele>
        <time>2020-08-09T09:20:55Z</time>
      </trkpt>
      <trkpt lat="47.66314" lon="-3.19295">
        <ele>14.56</ele>
        <time>2020-08-09T09:20:58Z</time>
      </trkpt>
      <trkpt lat="47.66315" lon="-3.19286">
        <ele>14.56</ele>
        <time>2020-08-09T09:21:03Z</time>
      </trkpt>
      <trkpt lat="47.66313" lon="-3.19281">
        <ele>14.56</ele>
        <time>2020-08-09T09:21:07Z</time>
      </trkpt>
      <trkpt lat="47.66311" lon="-3.19275">
        <ele>14.56</ele>
        <time>2020-08-09T09:21:11Z</time>
      </trkpt>
      <trkpt lat="47.66309" lon="-3.19263">
        <ele>14.56</ele>
        <time>2020-08-09T09:21:19Z</time>
      </trkpt>
      <trkpt lat="47.66306" lon="-3.19248">
        <ele>13.12</ele>
        <time>2020-08-09T09:21:31Z</time>
      </trkpt>
      <trkpt lat="47.66297" lon="-3.19237">
        <ele>13.12</ele>
        <time>2020-08-09T09:21:43Z</time>
      </trkpt>
      <trkpt lat="47.66294" lon="-3.19228">
        <ele>13.12</ele>
        <time>2020-08-09T09:21:53Z</time>
      </trkpt>
      <trkpt lat="47.66297" lon="-3.19213">
        <ele>13.6</ele>
        <time>2020-08-09T09:22:05Z</time>
      </trkpt>
      <trkpt lat="47.66294" lon="-3.19204">
        <ele>13.6</ele>
        <time>2020-08-09T09:22:17Z</time>
      </trkpt>
      <trkpt lat="47.66289" lon="-3.19197">
        <ele>13.12</ele>
        <time>2020-08-09T09:22:29Z</time>
      </trkpt>
      <trkpt lat="47.66285" lon="-3.19184">
        <ele>12.63</ele>
        <time>2020-08-09T09:22:41Z</time>
      </trkpt>
      <trkpt lat="47.66291" lon="-3.19164">
        <ele>12.63</ele>
        <time>2020-08-09T09:22:53Z</time>
      </trkpt>
      <trkpt lat="47.66295" lon="-3.19153">
        <ele>12.63</ele>
        <time>2020-08-09T09:22:59Z</time>
      </trkpt>
      <trkpt lat="47.66302" lon="-3.19131">
        <ele>12.63</ele>
        <time>2020-08-09T09:23:13Z</time>
      </trkpt>
      <trkpt lat="47.66307" lon="-3.19115">
        <ele>12.63</ele>
        <time>2020-08-09T09:23:24Z</time>
      </trkpt>
      <trkpt lat="47.66308" lon="-3.19114">
        <ele>12.63</ele>
        <time>2020-08-09T09:23:28Z</time>
      </trkpt>
      <trkpt lat="47.66308" lon="-3.19109">
        <ele>12.63</ele>
        <time>2020-08-09T09:23:31Z</time>
      </trkpt>
      <trkpt lat="47.66308" lon="-3.19106">
        <ele>12.63</ele>
        <time>2020-08-09T09:23:33Z</time>
      </trkpt>
      <trkpt lat="47.66307" lon="-3.1909">
        <ele>12.63</ele>
        <time>2020-08-09T09:23:46Z</time>
      </trkpt>
      <trkpt lat="47.66303" lon="-3.19085">
        <ele>13.12</ele>
        <time>2020-08-09T09:24:06Z</time>
      </trkpt>
      <trkpt lat="47.66302" lon="-3.19083">
        <ele>12.63</ele>
        <time>2020-08-09T09:24:26Z</time>
      </trkpt>
      <trkpt lat="47.66302" lon="-3.19083">
        <ele>12.63</ele>
        <time>2020-08-09T09:24:47Z</time>
      </trkpt>
      <trkpt lat="47.66302" lon="-3.19083">
        <ele>12.15</ele>
        <time>2020-08-09T09:25:04Z</time>
      </trkpt>
      <trkpt lat="47.66302" lon="-3.19083">
        <ele>12.15</ele>
        <time>2020-08-09T09:25:18Z</time>
      </trkpt>
      <trkpt lat="47.66302" lon="-3.19091">
        <ele>12.15</ele>
        <time>2020-08-09T09:25:25Z</time>
      </trkpt>
      <trkpt lat="47.66307" lon="-3.1911">
        <ele>12.63</ele>
        <time>2020-08-09T09:25:41Z</time>
      </trkpt>
      <trkpt lat="47.66322" lon="-3.19125">
        <ele>14.08</ele>
        <time>2020-08-09T09:25:58Z</time>
      </trkpt>
      <trkpt lat="47.66329" lon="-3.19132">
        <ele>14.08</ele>
        <time>2020-08-09T09:26:09Z</time>
      </trkpt>
      <trkpt lat="47.66347" lon="-3.19144">
        <ele>14.56</ele>
        <time>2020-08-09T09:26:30Z</time>
      </trkpt>
      <trkpt lat="47.66355" lon="-3.19153">
        <ele>14.56</ele>
        <time>2020-08-09T09:26:45Z</time>
      </trkpt>
      <trkpt lat="47.66364" lon="-3.19161">
        <ele>15.04</ele>
        <time>2020-08-09T09:26:58Z</time>
      </trkpt>
      <trkpt lat="47.6637" lon="-3.19163">
        <ele>14.56</ele>
        <time>2020-08-09T09:27:15Z</time>
      </trkpt>
      <trkpt lat="47.66389" lon="-3.1917">
        <ele>14.56</ele>
        <time>2020-08-09T09:27:34Z</time>
      </trkpt>
      <trkpt lat="47.664" lon="-3.1918">
        <ele>14.56</ele>
        <time>2020-08-09T09:27:50Z</time>
      </trkpt>
      <trkpt lat="47.66402" lon="-3.19184">
        <ele>14.56</ele>
        <time>2020-08-09T09:28:09Z</time>
      </trkpt>
      <trkpt lat="47.66405" lon="-3.19187">
        <ele>13.6</ele>
        <time>2020-08-09T09:28:24Z</time>
      </trkpt>
      <trkpt lat="47.66416" lon="-3.19195">
        <ele>13.6</ele>
        <time>2020-08-09T09:28:36Z</time>
      </trkpt>
      <trkpt lat="47.66434" lon="-3.19202">
        <ele>13.12</ele>
        <time>2020-08-09T09:28:52Z</time>
      </trkpt>
      <trkpt lat="47.66441" lon="-3.19214">
        <ele>13.12</ele>
        <time>2020-08-09T09:29:07Z</time>
      </trkpt>
      <trkpt lat="47.66444" lon="-3.19226">
        <ele>13.12</ele>
        <time>2020-08-09T09:29:23Z</time>
      </trkpt>
      <trkpt lat="47.66445" lon="-3.19227">
        <ele>13.6</ele>
        <time>2020-08-09T09:29:38Z</time>
      </trkpt>
      <trkpt lat="47.66448" lon="-3.19228">
        <ele>13.6</ele>
        <time>2020-08-09T09:29:54Z</time>
      </trkpt>
      <trkpt lat="47.66455" lon="-3.19233">
        <ele>14.08</ele>
        <time>2020-08-09T09:30:07Z</time>
      </trkpt>
      <trkpt lat="47.66465" lon="-3.19245">
        <ele>13.6</ele>
        <time>2020-08-09T09:30:19Z</time>
      </trkpt>
      <trkpt lat="47.66473" lon="-3.19258">
        <ele>14.56</ele>
        <time>2020-08-09T09:30:31Z</time>
      </trkpt>
      <trkpt lat="47.6648" lon="-3.19267">
        <ele>15.04</ele>
        <time>2020-08-09T09:30:42Z</time>
      </trkpt>
      <trkpt lat="47.66485" lon="-3.19273">
        <ele>16</ele>
        <time>2020-08-09T09:30:57Z</time>
      </trkpt>
      <trkpt lat="47.66491" lon="-3.1928">
        <ele>16</ele>
        <time>2020-08-09T09:31:08Z</time>
      </trkpt>
      <trkpt lat="47.665" lon="-3.19284">
        <ele>15.52</ele>
        <time>2020-08-09T09:31:23Z</time>
      </trkpt>
      <trkpt lat="47.66507" lon="-3.19287">
        <ele>16</ele>
        <time>2020-08-09T09:31:34Z</time>
      </trkpt>
      <trkpt lat="47.66516" lon="-3.1929">
        <ele>16</ele>
        <time>2020-08-09T09:31:47Z</time>
      </trkpt>
      <trkpt lat="47.66525" lon="-3.19295">
        <ele>16</ele>
        <time>2020-08-09T09:31:58Z</time>
      </trkpt>
      <trkpt lat="47.66536" lon="-3.19296">
        <ele>16.48</ele>
        <time>2020-08-09T09:32:09Z</time>
      </trkpt>
      <trkpt lat="47.6656" lon="-3.19301">
        <ele>16.96</ele>
        <time>2020-08-09T09:32:23Z</time>
      </trkpt>
      <trkpt lat="47.66582" lon="-3.19306">
        <ele>16.96</ele>
        <time>2020-08-09T09:32:35Z</time>
      </trkpt>
      <trkpt lat="47.66598" lon="-3.19313">
        <ele>17.92</ele>
        <time>2020-08-09T09:32:50Z</time>
      </trkpt>
      <trkpt lat="47.666" lon="-3.19313">
        <ele>17.92</ele>
        <time>2020-08-09T09:32:53Z</time>
      </trkpt>
      <trkpt lat="47.6661" lon="-3.19317">
        <ele>18.4</ele>
        <time>2020-08-09T09:33:04Z</time>
      </trkpt>
      <trkpt lat="47.66612" lon="-3.19318">
        <ele>18.4</ele>
        <time>2020-08-09T09:33:06Z</time>
      </trkpt>
      <trkpt lat="47.66627" lon="-3.19325">
        <ele>18.4</ele>
        <time>2020-08-09T09:33:17Z</time>
      </trkpt>
      <trkpt lat="47.6664" lon="-3.1933">
        <ele>18.4</ele>
        <time>2020-08-09T09:33:27Z</time>
      </trkpt>
      <trkpt lat="47.66647" lon="-3.19326">
        <ele>18.88</ele>
        <time>2020-08-09T09:33:34Z</time>
      </trkpt>
      <trkpt lat="47.66658" lon="-3.19328">
        <ele>18.4</ele>
        <time>2020-08-09T09:33:47Z</time>
      </trkpt>
      <trkpt lat="47.66666" lon="-3.1933">
        <ele>18.88</ele>
        <time>2020-08-09T09:34:01Z</time>
      </trkpt>
      <trkpt lat="47.66675" lon="-3.19329">
        <ele>17.92</ele>
        <time>2020-08-09T09:34:13Z</time>
      </trkpt>
      <trkpt lat="47.66688" lon="-3.19325">
        <ele>17.92</ele>
        <time>2020-08-09T09:34:24Z</time>
      </trkpt>
      <trkpt lat="47.66698" lon="-3.19325">
        <ele>17.92</ele>
        <time>2020-08-09T09:34:31Z</time>
      </trkpt>
      <trkpt lat="47.66713" lon="-3.1932">
        <ele>17.92</ele>
        <time>2020-08-09T09:34:45Z</time>
      </trkpt>
      <trkpt lat="47.66716" lon="-3.19315">
        <ele>17.92</ele>
        <time>2020-08-09T09:34:58Z</time>
      </trkpt>
      <trkpt lat="47.6672" lon="-3.19299">
        <ele>18.4</ele>
        <time>2020-08-09T09:35:10Z</time>
      </trkpt>
      <trkpt lat="47.66719" lon="-3.19297">
        <ele>18.4</ele>
        <time>2020-08-09T09:35:24Z</time>
      </trkpt>
      <trkpt lat="47.66727" lon="-3.19302">
        <ele>18.88</ele>
        <time>2020-08-09T09:35:36Z</time>
      </trkpt>
      <trkpt lat="47.66736" lon="-3.19303">
        <ele>18.88</ele>
        <time>2020-08-09T09:35:49Z</time>
      </trkpt>
      <trkpt lat="47.6674" lon="-3.19302">
        <ele>18.88</ele>
        <time>2020-08-09T09:35:53Z</time>
      </trkpt>
      <trkpt lat="47.66749" lon="-3.19297">
        <ele>19.36</ele>
        <time>2020-08-09T09:36:02Z</time>
      </trkpt>
      <trkpt lat="47.66763" lon="-3.19299">
        <ele>19.84</ele>
        <time>2020-08-09T09:36:16Z</time>
      </trkpt>
      <trkpt lat="47.66773" lon="-3.19311">
        <ele>20.32</ele>
        <time>2020-08-09T09:36:30Z</time>
      </trkpt>
      <trkpt lat="47.66775" lon="-3.19313">
        <ele>20.32</ele>
        <time>2020-08-09T09:36:42Z</time>
      </trkpt>
      <trkpt lat="47.66782" lon="-3.19311">
        <ele>20.32</ele>
        <time>2020-08-09T09:36:57Z</time>
      </trkpt>
      <trkpt lat="47.66784" lon="-3.1931">
        <ele>20.32</ele>
        <time>2020-08-09T09:37:02Z</time>
      </trkpt>
      <trkpt lat="47.66788" lon="-3.1931">
        <ele>20.81</ele>
        <time>2020-08-09T09:37:05Z</time>
      </trkpt>
      <trkpt lat="47.66797" lon="-3.1931">
        <ele>20.81</ele>
        <time>2020-08-09T09:37:11Z</time>
      </trkpt>
      <trkpt lat="47.66804" lon="-3.1931">
        <ele>21.29</ele>
        <time>2020-08-09T09:37:16Z</time>
      </trkpt>
      <trkpt lat="47.66821" lon="-3.19313">
        <ele>21.29</ele>
        <time>2020-08-09T09:37:29Z</time>
      </trkpt>
      <trkpt lat="47.66829" lon="-3.19312">
        <ele>21.29</ele>
        <time>2020-08-09T09:37:35Z</time>
      </trkpt>
      <trkpt lat="47.66833" lon="-3.1931">
        <ele>21.77</ele>
        <time>2020-08-09T09:37:38Z</time>
      </trkpt>
      <trkpt lat="47.66849" lon="-3.19301">
        <ele>22.25</ele>
        <time>2020-08-09T09:37:52Z</time>
      </trkpt>
      <trkpt lat="47.66862" lon="-3.19299">
        <ele>22.73</ele>
        <time>2020-08-09T09:38:06Z</time>
      </trkpt>
      <trkpt lat="47.66865" lon="-3.19295">
        <ele>23.21</ele>
        <time>2020-08-09T09:38:11Z</time>
      </trkpt>
      <trkpt lat="47.6688" lon="-3.19295">
        <ele>23.69</ele>
        <time>2020-08-09T09:38:24Z</time>
      </trkpt>
      <trkpt lat="47.66884" lon="-3.19297">
        <ele>23.69</ele>
        <time>2020-08-09T09:38:28Z</time>
      </trkpt>
      <trkpt lat="47.66898" lon="-3.193">
        <ele>24.17</ele>
        <time>2020-08-09T09:38:40Z</time>
      </trkpt>
      <trkpt lat="47.66904" lon="-3.19302">
        <ele>24.17</ele>
        <time>2020-08-09T09:38:46Z</time>
      </trkpt>
      <trkpt lat="47.66912" lon="-3.19309">
        <ele>24.65</ele>
        <time>2020-08-09T09:38:55Z</time>
      </trkpt>
      <trkpt lat="47.66924" lon="-3.19324">
        <ele>25.61</ele>
        <time>2020-08-09T09:39:08Z</time>
      </trkpt>
      <trkpt lat="47.6694" lon="-3.19336">
        <ele>26.57</ele>
        <time>2020-08-09T09:39:23Z</time>
      </trkpt>
      <trkpt lat="47.66952" lon="-3.19345">
        <ele>26.09</ele>
        <time>2020-08-09T09:39:39Z</time>
      </trkpt>
      <trkpt lat="47.66953" lon="-3.19347">
        <ele>27.53</ele>
        <time>2020-08-09T09:39:46Z</time>
      </trkpt>
      <trkpt lat="47.66965" lon="-3.19365">
        <ele>27.53</ele>
        <time>2020-08-09T09:40:02Z</time>
      </trkpt>
      <trkpt lat="47.66966" lon="-3.19366">
        <ele>27.53</ele>
        <time>2020-08-09T09:40:03Z</time>
      </trkpt>
      <trkpt lat="47.66977" lon="-3.19381">
        <ele>28.5</ele>
        <time>2020-08-09T09:40:19Z</time>
      </trkpt>
      <trkpt lat="47.66983" lon="-3.19388">
        <ele>29.46</ele>
        <time>2020-08-09T09:40:27Z</time>
      </trkpt>
      <trkpt lat="47.66986" lon="-3.19391">
        <ele>29.46</ele>
        <time>2020-08-09T09:40:30Z</time>
      </trkpt>
      <trkpt lat="47.66988" lon="-3.19392">
        <ele>29.46</ele>
        <time>2020-08-09T09:40:32Z</time>
      </trkpt>
      <trkpt lat="47.66994" lon="-3.19402">
        <ele>30.42</ele>
        <time>2020-08-09T09:40:41Z</time>
      </trkpt>
      <trkpt lat="47.67001" lon="-3.1942">
        <ele>30.9</ele>
        <time>2020-08-09T09:40:54Z</time>
      </trkpt>
      <trkpt lat="47.67002" lon="-3.19425">
        <ele>31.38</ele>
        <time>2020-08-09T09:40:58Z</time>
      </trkpt>
      <trkpt lat="47.67008" lon="-3.1944">
        <ele>31.38</ele>
        <time>2020-08-09T09:41:10Z</time>
      </trkpt>
      <trkpt lat="47.67013" lon="-3.19454">
        <ele>30.9</ele>
        <time>2020-08-09T09:41:21Z</time>
      </trkpt>
      <trkpt lat="47.67018" lon="-3.19474">
        <ele>30.9</ele>
        <time>2020-08-09T09:41:35Z</time>
      </trkpt>
      <trkpt lat="47.67019" lon="-3.19476">
        <ele>30.42</ele>
        <time>2020-08-09T09:41:37Z</time>
      </trkpt>
      <trkpt lat="47.67028" lon="-3.19495">
        <ele>30.42</ele>
        <time>2020-08-09T09:41:52Z</time>
      </trkpt>
      <trkpt lat="47.67029" lon="-3.19496">
        <ele>30.9</ele>
        <time>2020-08-09T09:41:53Z</time>
      </trkpt>
      <trkpt lat="47.67032" lon="-3.19502">
        <ele>30.42</ele>
        <time>2020-08-09T09:41:58Z</time>
      </trkpt>
      <trkpt lat="47.67039" lon="-3.19512">
        <ele>30.9</ele>
        <time>2020-08-09T09:42:09Z</time>
      </trkpt>
      <trkpt lat="47.67041" lon="-3.19513">
        <ele>30.9</ele>
        <time>2020-08-09T09:42:11Z</time>
      </trkpt>
      <trkpt lat="47.67048" lon="-3.19516">
        <ele>30.9</ele>
        <time>2020-08-09T09:42:20Z</time>
      </trkpt>
      <trkpt lat="47.67061" lon="-3.1952">
        <ele>30.9</ele>
        <time>2020-08-09T09:42:34Z</time>
      </trkpt>
      <trkpt lat="47.67068" lon="-3.19525">
        <ele>30.9</ele>
        <time>2020-08-09T09:42:43Z</time>
      </trkpt>
      <trkpt lat="47.67076" lon="-3.19538">
        <ele>30.9</ele>
        <time>2020-08-09T09:42:56Z</time>
      </trkpt>
      <trkpt lat="47.67079" lon="-3.19547">
        <ele>30.9</ele>
        <time>2020-08-09T09:43:05Z</time>
      </trkpt>
      <trkpt lat="47.67081" lon="-3.19556">
        <ele>30.42</ele>
        <time>2020-08-09T09:43:12Z</time>
      </trkpt>
      <trkpt lat="47.67075" lon="-3.19567">
        <ele>30.9</ele>
        <time>2020-08-09T09:43:23Z</time>
      </trkpt>
      <trkpt lat="47.67075" lon="-3.19569">
        <ele>30.42</ele>
        <time>2020-08-09T09:43:25Z</time>
      </trkpt>
      <trkpt lat="47.67068" lon="-3.19587">
        <ele>29.94</ele>
        <time>2020-08-09T09:43:39Z</time>
      </trkpt>
      <trkpt lat="47.67065" lon="-3.19593">
        <ele>30.42</ele>
        <time>2020-08-09T09:43:43Z</time>
      </trkpt>
      <trkpt lat="47.67063" lon="-3.19598">
        <ele>29.46</ele>
        <time>2020-08-09T09:43:47Z</time>
      </trkpt>
      <trkpt lat="47.67058" lon="-3.19612">
        <ele>29.46</ele>
        <time>2020-08-09T09:43:57Z</time>
      </trkpt>
      <trkpt lat="47.67051" lon="-3.19628">
        <ele>29.46</ele>
        <time>2020-08-09T09:44:10Z</time>
      </trkpt>
      <trkpt lat="47.67049" lon="-3.19639">
        <ele>28.5</ele>
        <time>2020-08-09T09:44:17Z</time>
      </trkpt>
      <trkpt lat="47.67042" lon="-3.19662">
        <ele>28.02</ele>
        <time>2020-08-09T09:44:33Z</time>
      </trkpt>
      <trkpt lat="47.67033" lon="-3.19685">
        <ele>26.57</ele>
        <time>2020-08-09T09:44:50Z</time>
      </trkpt>
      <trkpt lat="47.67025" lon="-3.19705">
        <ele>25.13</ele>
        <time>2020-08-09T09:45:05Z</time>
      </trkpt>
      <trkpt lat="47.67024" lon="-3.19707">
        <ele>24.65</ele>
        <time>2020-08-09T09:45:07Z</time>
      </trkpt>
      <trkpt lat="47.67012" lon="-3.19732">
        <ele>24.17</ele>
        <time>2020-08-09T09:45:25Z</time>
      </trkpt>
      <trkpt lat="47.67002" lon="-3.19753">
        <ele>23.69</ele>
        <time>2020-08-09T09:45:41Z</time>
      </trkpt>
      <trkpt lat="47.66997" lon="-3.19761">
        <ele>23.21</ele>
        <time>2020-08-09T09:45:48Z</time>
      </trkpt>
      <trkpt lat="47.66996" lon="-3.19765">
        <ele>23.69</ele>
        <time>2020-08-09T09:45:56Z</time>
      </trkpt>
      <trkpt lat="47.66991" lon="-3.19778">
        <ele>23.21</ele>
        <time>2020-08-09T09:46:05Z</time>
      </trkpt>
      <trkpt lat="47.66982" lon="-3.19801">
        <ele>23.21</ele>
        <time>2020-08-09T09:46:22Z</time>
      </trkpt>
      <trkpt lat="47.66981" lon="-3.19805">
        <ele>23.69</ele>
        <time>2020-08-09T09:46:25Z</time>
      </trkpt>
      <trkpt lat="47.66978" lon="-3.1981">
        <ele>23.21</ele>
        <time>2020-08-09T09:46:29Z</time>
      </trkpt>
      <trkpt lat="47.66977" lon="-3.19813">
        <ele>23.69</ele>
        <time>2020-08-09T09:46:31Z</time>
      </trkpt>
      <trkpt lat="47.66973" lon="-3.19823">
        <ele>23.69</ele>
        <time>2020-08-09T09:46:39Z</time>
      </trkpt>
      <trkpt lat="47.66966" lon="-3.19843">
        <ele>24.65</ele>
        <time>2020-08-09T09:46:52Z</time>
      </trkpt>
      <trkpt lat="47.66965" lon="-3.19847">
        <ele>24.65</ele>
        <time>2020-08-09T09:46:55Z</time>
      </trkpt>
      <trkpt lat="47.6696" lon="-3.19865">
        <ele>26.09</ele>
        <time>2020-08-09T09:47:09Z</time>
      </trkpt>
      <trkpt lat="47.6696" lon="-3.19866">
        <ele>26.57</ele>
        <time>2020-08-09T09:47:10Z</time>
      </trkpt>
      <trkpt lat="47.66958" lon="-3.19885">
        <ele>27.05</ele>
        <time>2020-08-09T09:47:22Z</time>
      </trkpt>
      <trkpt lat="47.66957" lon="-3.19894">
        <ele>27.05</ele>
        <time>2020-08-09T09:47:37Z</time>
      </trkpt>
      <trkpt lat="47.66958" lon="-3.19896">
        <ele>27.05</ele>
        <time>2020-08-09T09:47:42Z</time>
      </trkpt>
      <trkpt lat="47.66959" lon="-3.19898">
        <ele>27.05</ele>
        <time>2020-08-09T09:47:44Z</time>
      </trkpt>
      <trkpt lat="47.66965" lon="-3.19905">
        <ele>27.53</ele>
        <time>2020-08-09T09:47:57Z</time>
      </trkpt>
      <trkpt lat="47.6697" lon="-3.19911">
        <ele>27.53</ele>
        <time>2020-08-09T09:48:04Z</time>
      </trkpt>
      <trkpt lat="47.66981" lon="-3.19912">
        <ele>27.05</ele>
        <time>2020-08-09T09:48:16Z</time>
      </trkpt>
      <trkpt lat="47.66985" lon="-3.19914">
        <ele>27.05</ele>
        <time>2020-08-09T09:48:21Z</time>
      </trkpt>
      <trkpt lat="47.66993" lon="-3.19919">
        <ele>27.05</ele>
        <time>2020-08-09T09:48:30Z</time>
      </trkpt>
      <trkpt lat="47.67004" lon="-3.1993">
        <ele>26.57</ele>
        <time>2020-08-09T09:48:44Z</time>
      </trkpt>
      <trkpt lat="47.67017" lon="-3.19939">
        <ele>26.09</ele>
        <time>2020-08-09T09:48:57Z</time>
      </trkpt>
      <trkpt lat="47.67025" lon="-3.19946">
        <ele>25.13</ele>
        <time>2020-08-09T09:49:10Z</time>
      </trkpt>
      <trkpt lat="47.67028" lon="-3.19946">
        <ele>23.69</ele>
        <time>2020-08-09T09:49:22Z</time>
      </trkpt>
      <trkpt lat="47.67034" lon="-3.19942">
        <ele>22.73</ele>
        <time>2020-08-09T09:49:29Z</time>
      </trkpt>
      <trkpt lat="47.67039" lon="-3.19937">
        <ele>21.77</ele>
        <time>2020-08-09T09:49:35Z</time>
      </trkpt>
      <trkpt lat="47.67044" lon="-3.19934">
        <ele>21.29</ele>
        <time>2020-08-09T09:49:42Z</time>
      </trkpt>
      <trkpt lat="47.67054" lon="-3.19923">
        <ele>20.81</ele>
        <time>2020-08-09T09:49:56Z</time>
      </trkpt>
      <trkpt lat="47.67069" lon="-3.19916">
        <ele>20.81</ele>
        <time>2020-08-09T09:50:08Z</time>
      </trkpt>
      <trkpt lat="47.67083" lon="-3.19913">
        <ele>20.32</ele>
        <time>2020-08-09T09:50:23Z</time>
      </trkpt>
      <trkpt lat="47.67088" lon="-3.19899">
        <ele>20.81</ele>
        <time>2020-08-09T09:50:37Z</time>
      </trkpt>
      <trkpt lat="47.67091" lon="-3.19887">
        <ele>21.29</ele>
        <time>2020-08-09T09:50:48Z</time>
      </trkpt>
      <trkpt lat="47.67095" lon="-3.19871">
        <ele>22.73</ele>
        <time>2020-08-09T09:51:03Z</time>
      </trkpt>
      <trkpt lat="47.67097" lon="-3.19869">
        <ele>22.73</ele>
        <time>2020-08-09T09:51:05Z</time>
      </trkpt>
      <trkpt lat="47.67104" lon="-3.19853">
        <ele>24.17</ele>
        <time>2020-08-09T09:51:20Z</time>
      </trkpt>
      <trkpt lat="47.67105" lon="-3.19852">
        <ele>23.69</ele>
        <time>2020-08-09T09:51:22Z</time>
      </trkpt>
      <trkpt lat="47.67109" lon="-3.19844">
        <ele>24.17</ele>
        <time>2020-08-09T09:51:30Z</time>
      </trkpt>
      <trkpt lat="47.6712" lon="-3.19824">
        <ele>25.13</ele>
        <time>2020-08-09T09:51:45Z</time>
      </trkpt>
      <trkpt lat="47.67128" lon="-3.19813">
        <ele>25.61</ele>
        <time>2020-08-09T09:51:58Z</time>
      </trkpt>
      <trkpt lat="47.6713" lon="-3.19809">
        <ele>26.57</ele>
        <time>2020-08-09T09:52:02Z</time>
      </trkpt>
      <trkpt lat="47.67132" lon="-3.19804">
        <ele>26.09</ele>
        <time>2020-08-09T09:52:15Z</time>
      </trkpt>
      <trkpt lat="47.67134" lon="-3.19796">
        <ele>25.61</ele>
        <time>2020-08-09T09:52:26Z</time>
      </trkpt>
      <trkpt lat="47.67142" lon="-3.19782">
        <ele>26.57</ele>
        <time>2020-08-09T09:52:40Z</time>
      </trkpt>
      <trkpt lat="47.67144" lon="-3.1978">
        <ele>26.57</ele>
        <time>2020-08-09T09:52:42Z</time>
      </trkpt>
      <trkpt lat="47.67154" lon="-3.19767">
        <ele>27.05</ele>
        <time>2020-08-09T09:52:56Z</time>
      </trkpt>
      <trkpt lat="47.67157" lon="-3.19764">
        <ele>27.53</ele>
        <time>2020-08-09T09:53:01Z</time>
      </trkpt>
      <trkpt lat="47.67161" lon="-3.19761">
        <ele>27.53</ele>
        <time>2020-08-09T09:53:05Z</time>
      </trkpt>
      <trkpt lat="47.67174" lon="-3.19753">
        <ele>27.53</ele>
        <time>2020-08-09T09:53:18Z</time>
      </trkpt>
      <trkpt lat="47.6718" lon="-3.19749">
        <ele>27.53</ele>
        <time>2020-08-09T09:53:24Z</time>
      </trkpt>
      <trkpt lat="47.67185" lon="-3.19746">
        <ele>27.05</ele>
        <time>2020-08-09T09:53:30Z</time>
      </trkpt>
      <trkpt lat="47.67193" lon="-3.19737">
        <ele>27.05</ele>
        <time>2020-08-09T09:53:39Z</time>
      </trkpt>
      <trkpt lat="47.67201" lon="-3.19731">
        <ele>27.53</ele>
        <time>2020-08-09T09:53:47Z</time>
      </trkpt>
      <trkpt lat="47.67216" lon="-3.19722">
        <ele>27.53</ele>
        <time>2020-08-09T09:54:01Z</time>
      </trkpt>
      <trkpt lat="47.67229" lon="-3.19712">
        <ele>26.57</ele>
        <time>2020-08-09T09:54:15Z</time>
      </trkpt>
      <trkpt lat="47.6723" lon="-3.19712">
        <ele>27.05</ele>
        <time>2020-08-09T09:54:16Z</time>
      </trkpt>
      <trkpt lat="47.67243" lon="-3.19702">
        <ele>26.57</ele>
        <time>2020-08-09T09:54:30Z</time>
      </trkpt>
      <trkpt lat="47.6725" lon="-3.19695">
        <ele>26.57</ele>
        <time>2020-08-09T09:54:38Z</time>
      </trkpt>
      <trkpt lat="47.6726" lon="-3.19686">
        <ele>26.57</ele>
        <time>2020-08-09T09:54:51Z</time>
      </trkpt>
      <trkpt lat="47.67263" lon="-3.19678">
        <ele>25.61</ele>
        <time>2020-08-09T09:55:03Z</time>
      </trkpt>
      <trkpt lat="47.67269" lon="-3.19684">
        <ele>24.65</ele>
        <time>2020-08-09T09:55:14Z</time>
      </trkpt>
      <trkpt lat="47.6727" lon="-3.19685">
        <ele>24.65</ele>
        <time>2020-08-09T09:55:15Z</time>
      </trkpt>
      <trkpt lat="47.67276" lon="-3.19688">
        <ele>24.17</ele>
        <time>2020-08-09T09:55:27Z</time>
      </trkpt>
      <trkpt lat="47.67288" lon="-3.19691">
        <ele>23.21</ele>
        <time>2020-08-09T09:55:42Z</time>
      </trkpt>
      <trkpt lat="47.67294" lon="-3.19699">
        <ele>22.73</ele>
        <time>2020-08-09T09:55:48Z</time>
      </trkpt>
      <trkpt lat="47.67298" lon="-3.19701">
        <ele>22.73</ele>
        <time>2020-08-09T09:55:51Z</time>
      </trkpt>
      <trkpt lat="47.67311" lon="-3.19708">
        <ele>22.25</ele>
        <time>2020-08-09T09:56:06Z</time>
      </trkpt>
      <trkpt lat="47.67312" lon="-3.19709">
        <ele>21.77</ele>
        <time>2020-08-09T09:56:07Z</time>
      </trkpt>
      <trkpt lat="47.67315" lon="-3.19712">
        <ele>22.25</ele>
        <time>2020-08-09T09:56:10Z</time>
      </trkpt>
      <trkpt lat="47.67328" lon="-3.19722">
        <ele>19.84</ele>
        <time>2020-08-09T09:56:27Z</time>
      </trkpt>
      <trkpt lat="47.67332" lon="-3.19727">
        <ele>19.84</ele>
        <time>2020-08-09T09:56:41Z</time>
      </trkpt>
      <trkpt lat="47.67331" lon="-3.19729">
        <ele>19.84</ele>
        <time>2020-08-09T09:56:55Z</time>
      </trkpt>
      <trkpt lat="47.67329" lon="-3.19735">
        <ele>18.88</ele>
        <time>2020-08-09T09:57:13Z</time>
      </trkpt>
      <trkpt lat="47.67328" lon="-3.1974">
        <ele>18.4</ele>
        <time>2020-08-09T09:57:29Z</time>
      </trkpt>
      <trkpt lat="47.67326" lon="-3.19745">
        <ele>18.88</ele>
        <time>2020-08-09T09:57:34Z</time>
      </trkpt>
      <trkpt lat="47.67325" lon="-3.19756">
        <ele>18.4</ele>
        <time>2020-08-09T09:57:44Z</time>
      </trkpt>
      <trkpt lat="47.67327" lon="-3.19759">
        <ele>17.44</ele>
        <time>2020-08-09T09:57:58Z</time>
      </trkpt>
      <trkpt lat="47.67321" lon="-3.19766">
        <ele>17.92</ele>
        <time>2020-08-09T09:58:10Z</time>
      </trkpt>
      <trkpt lat="47.6732" lon="-3.19768">
        <ele>17.44</ele>
        <time>2020-08-09T09:58:26Z</time>
      </trkpt>
      <trkpt lat="47.67319" lon="-3.19768">
        <ele>17.44</ele>
        <time>2020-08-09T09:58:39Z</time>
      </trkpt>
      <trkpt lat="47.67315" lon="-3.19776">
        <ele>16.48</ele>
        <time>2020-08-09T09:58:51Z</time>
      </trkpt>
      <trkpt lat="47.67314" lon="-3.1979">
        <ele>16</ele>
        <time>2020-08-09T09:59:03Z</time>
      </trkpt>
      <trkpt lat="47.67313" lon="-3.1981">
        <ele>16</ele>
        <time>2020-08-09T09:59:17Z</time>
      </trkpt>
      <trkpt lat="47.67309" lon="-3.19823">
        <ele>15.52</ele>
        <time>2020-08-09T09:59:30Z</time>
      </trkpt>
      <trkpt lat="47.67301" lon="-3.19834">
        <ele>16</ele>
        <time>2020-08-09T09:59:44Z</time>
      </trkpt>
      <trkpt lat="47.673" lon="-3.19835">
        <ele>16</ele>
        <time>2020-08-09T09:59:45Z</time>
      </trkpt>
      <trkpt lat="47.67299" lon="-3.1984">
        <ele>15.52</ele>
        <time>2020-08-09T09:59:49Z</time>
      </trkpt>
      <trkpt lat="47.67296" lon="-3.19848">
        <ele>15.52</ele>
        <time>2020-08-09T09:59:56Z</time>
      </trkpt>
      <trkpt lat="47.67295" lon="-3.19853">
        <ele>15.52</ele>
        <time>2020-08-09T10:00:00Z</time>
      </trkpt>
      <trkpt lat="47.67289" lon="-3.19862">
        <ele>15.52</ele>
        <time>2020-08-09T10:00:13Z</time>
      </trkpt>
      <trkpt lat="47.67287" lon="-3.19865">
        <ele>15.52</ele>
        <time>2020-08-09T10:00:30Z</time>
      </trkpt>
      <trkpt lat="47.67286" lon="-3.19876">
        <ele>15.52</ele>
        <time>2020-08-09T10:00:40Z</time>
      </trkpt>
      <trkpt lat="47.67282" lon="-3.1989">
        <ele>15.04</ele>
        <time>2020-08-09T10:00:55Z</time>
      </trkpt>
      <trkpt lat="47.67281" lon="-3.19891">
        <ele>15.04</ele>
        <time>2020-08-09T10:01:13Z</time>
      </trkpt>
      <trkpt lat="47.67276" lon="-3.19894">
        <ele>17.92</ele>
        <time>2020-08-09T10:01:25Z</time>
      </trkpt>
      <trkpt lat="47.67272" lon="-3.19898">
        <ele>19.84</ele>
        <time>2020-08-09T10:01:42Z</time>
      </trkpt>
      <trkpt lat="47.67271" lon="-3.19898">
        <ele>18.88</ele>
        <time>2020-08-09T10:02:00Z</time>
      </trkpt>
      <trkpt lat="47.6727" lon="-3.19899">
        <ele>19.36</ele>
        <time>2020-08-09T10:02:23Z</time>
      </trkpt>
      <trkpt lat="47.67269" lon="-3.199">
        <ele>19.36</ele>
        <time>2020-08-09T10:02:51Z</time>
      </trkpt>
      <trkpt lat="47.67268" lon="-3.199">
        <ele>19.36</ele>
        <time>2020-08-09T10:03:28Z</time>
      </trkpt>
      <trkpt lat="47.67267" lon="-3.19901">
        <ele>19.36</ele>
        <time>2020-08-09T10:04:04Z</time>
      </trkpt>
      <trkpt lat="47.6726" lon="-3.19898">
        <ele>20.81</ele>
        <time>2020-08-09T10:04:15Z</time>
      </trkpt>
      <trkpt lat="47.67253" lon="-3.19896">
        <ele>21.29</ele>
        <time>2020-08-09T10:04:24Z</time>
      </trkpt>
      <trkpt lat="47.67247" lon="-3.19901">
        <ele>19.84</ele>
        <time>2020-08-09T10:04:35Z</time>
      </trkpt>
      <trkpt lat="47.67243" lon="-3.19909">
        <ele>21.77</ele>
        <time>2020-08-09T10:04:48Z</time>
      </trkpt>
      <trkpt lat="47.6724" lon="-3.19914">
        <ele>21.29</ele>
        <time>2020-08-09T10:04:59Z</time>
      </trkpt>
      <trkpt lat="47.67237" lon="-3.1992">
        <ele>20.81</ele>
        <time>2020-08-09T10:05:16Z</time>
      </trkpt>
      <trkpt lat="47.6723" lon="-3.1993">
        <ele>22.25</ele>
        <time>2020-08-09T10:05:29Z</time>
      </trkpt>
      <trkpt lat="47.67225" lon="-3.19934">
        <ele>22.25</ele>
        <time>2020-08-09T10:05:47Z</time>
      </trkpt>
      <trkpt lat="47.67221" lon="-3.19942">
        <ele>22.25</ele>
        <time>2020-08-09T10:06:07Z</time>
      </trkpt>
      <trkpt lat="47.67218" lon="-3.19947">
        <ele>22.25</ele>
        <time>2020-08-09T10:06:23Z</time>
      </trkpt>
      <trkpt lat="47.67218" lon="-3.19946">
        <ele>21.77</ele>
        <time>2020-08-09T10:06:54Z</time>
      </trkpt>
      <trkpt lat="47.67216" lon="-3.19949">
        <ele>21.77</ele>
        <time>2020-08-09T10:07:05Z</time>
      </trkpt>
      <trkpt lat="47.67215" lon="-3.1995">
        <ele>22.25</ele>
        <time>2020-08-09T10:07:34Z</time>
      </trkpt>
      <trkpt lat="47.67213" lon="-3.19945">
        <ele>21.77</ele>
        <time>2020-08-09T10:07:53Z</time>
      </trkpt>
      <trkpt lat="47.67212" lon="-3.1994">
        <ele>21.77</ele>
        <time>2020-08-09T10:08:18Z</time>
      </trkpt>
      <trkpt lat="47.67211" lon="-3.19937">
        <ele>21.77</ele>
        <time>2020-08-09T10:08:40Z</time>
      </trkpt>
      <trkpt lat="47.67212" lon="-3.19938">
        <ele>22.25</ele>
        <time>2020-08-09T10:09:08Z</time>
      </trkpt>
      <trkpt lat="47.67209" lon="-3.19938">
        <ele>21.77</ele>
        <time>2020-08-09T10:09:24Z</time>
      </trkpt>
      <trkpt lat="47.672" lon="-3.19934">
        <ele>22.73</ele>
        <time>2020-08-09T10:09:38Z</time>
      </trkpt>
      <trkpt lat="47.67191" lon="-3.19922">
        <ele>22.73</ele>
        <time>2020-08-09T10:09:54Z</time>
      </trkpt>
      <trkpt lat="47.67177" lon="-3.19914">
        <ele>22.73</ele>
        <time>2020-08-09T10:10:08Z</time>
      </trkpt>
      <trkpt lat="47.67166" lon="-3.19904">
        <ele>23.21</ele>
        <time>2020-08-09T10:10:20Z</time>
      </trkpt>
      <trkpt lat="47.67163" lon="-3.19901">
        <ele>23.21</ele>
        <time>2020-08-09T10:10:24Z</time>
      </trkpt>
      <trkpt lat="47.67162" lon="-3.19888">
        <ele>23.69</ele>
        <time>2020-08-09T10:10:35Z</time>
      </trkpt>
      <trkpt lat="47.67163" lon="-3.19888">
        <ele>18.88</ele>
        <time>2020-08-09T10:10:41Z</time>
      </trkpt>
      <trkpt lat="47.67162" lon="-3.19888">
        <ele>25.61</ele>
        <time>2020-08-09T10:10:42Z</time>
      </trkpt>
      <trkpt lat="47.67162" lon="-3.19888">
        <ele>21.77</ele>
        <time>2020-08-09T10:10:47Z</time>
      </trkpt>
      <trkpt lat="47.67161" lon="-3.19887">
        <ele>26.09</ele>
        <time>2020-08-09T10:10:51Z</time>
      </trkpt>
      <trkpt lat="47.6716" lon="-3.19887">
        <ele>23.21</ele>
        <time>2020-08-09T10:10:56Z</time>
      </trkpt>
      <trkpt lat="47.6716" lon="-3.19887">
        <ele>23.21</ele>
        <time>2020-08-09T10:10:57Z</time>
      </trkpt>
    </trkseg>
  </trk>
</gpx>